M I D A S
Marine Information and Data Acquisition System
Tripno 1746 of the Zeeleeuw from 2009-08-05 07:12:31 to 2009-08-05 14:17:09
Back to CruiseResearch ActivitiesStationsMapUnderway DataData graphs

EquipmentUnitsComment
TimeDGPSUTC
LatitudeDGPSDM.mWGS84
LongitudeDGPSDM.mWGS84
TemperatureSBE03/SBE38deg celciusITS90
ConductivitySBE21S/mITS90
SalinitySBE21 Practical Salinity Units
ChlorophylAChelsea fluorimeterg/lCalibrated in Aceton
Missing or incorrect values are displayed as -999
Sea surface data collected by the RV Zeeleeuw from 2009-08-05 06:03:10 to 2009-08-05 15:33:31
                                                                                    Next 1000 lines
Time Latitude Longitude Temperature Conductivity Salinity ChlorophylA
2009-08-05 06:03:21 51°13.659 2°55.96 23.1601 2.475431 15.777595 39.430158
2009-08-05 06:03:25 51°13.659 2°55.959 23.1738 2.475431 15.777595 39.430158
2009-08-05 06:03:31 51°13.66 2°55.959 23.171 2.475328 15.777139 39.430158
2009-08-05 06:03:35 51°13.66 2°55.959 23.1673 2.475535 15.778582 39.464982
2009-08-05 06:03:40 51°13.66 2°55.959 23.1716 2.475328 15.777139 39.430158
2009-08-05 06:03:44 51°13.66 2°55.959 23.1773 2.475328 15.77767 39.430158
2009-08-05 06:03:50 51°13.66 2°55.959 23.1791 2.475328 15.777404 39.430158
2009-08-05 06:03:55 51°13.66 2°55.959 23.177 2.475328 15.777404 39.430158
2009-08-05 06:03:59 51°13.66 2°55.959 23.1715 2.475225 15.776683 39.430158
2009-08-05 06:04:04 51°13.66 2°55.959 23.1736 2.475225 15.776683 39.464982
2009-08-05 06:04:09 51°13.661 2°55.959 23.1736 2.475328 15.777404 39.430158
2009-08-05 06:04:13 51°13.661 2°55.959 23.174 2.475225 15.776948 39.430158
2009-08-05 06:04:18 51°13.661 2°55.959 23.1737 2.475225 15.776948 39.430158
2009-08-05 06:04:23 51°13.661 2°55.959 23.1741 2.475225 15.776948 39.430158
2009-08-05 06:04:28 51°13.661 2°55.959 23.1747 2.475225 15.776948 39.430158
2009-08-05 06:04:33 51°13.661 2°55.959 23.1753 2.475225 15.776948 39.430158
2009-08-05 06:04:38 51°13.661 2°55.959 23.1754 2.475225 15.777214 39.430158
2009-08-05 06:04:43 51°13.661 2°55.959 23.1755 2.475225 15.777214 39.430158
2009-08-05 06:04:48 51°13.662 2°55.959 23.1752 2.475225 15.777479 39.430158
2009-08-05 06:04:52 51°13.662 2°55.959 23.1745 2.475225 15.777479 39.430158
2009-08-05 06:04:56 51°13.662 2°55.959 23.175 2.475225 15.777479 39.430158
2009-08-05 06:05:02 51°13.662 2°55.959 23.174 2.475225 15.777479 39.430158
2009-08-05 06:05:06 51°13.662 2°55.959 23.174 2.475121 15.777023 39.430158
2009-08-05 06:05:12 51°13.662 2°55.96 23.1733 2.475121 15.777023 39.430158
2009-08-05 06:05:17 51°13.662 2°55.96 23.1734 2.475121 15.777023 39.430158
2009-08-05 06:05:22 51°13.662 2°55.96 23.1736 2.475121 15.777023 39.430158
2009-08-05 06:05:27 51°13.662 2°55.96 23.1737 2.475121 15.777023 39.430158
2009-08-05 06:05:32 51°13.662 2°55.96 23.1743 2.475121 15.777023 39.395334
2009-08-05 06:05:36 51°13.662 2°55.96 23.1743 2.475121 15.777288 39.430158
2009-08-05 06:05:41 51°13.662 2°55.96 23.1738 2.475121 15.777288 39.395334
2009-08-05 06:05:47 51°13.662 2°55.96 23.1732 2.475018 15.776567 39.395334
2009-08-05 06:05:52 51°13.662 2°55.96 23.1734 2.475018 15.776567 39.395334
2009-08-05 06:05:56 51°13.662 2°55.96 23.1741 2.475018 15.776567 39.395334
2009-08-05 06:06:02 51°13.662 2°55.96 23.1739 2.475018 15.776832 39.395334
2009-08-05 06:06:07 51°13.662 2°55.96 23.1737 2.475018 15.776832 39.395334
2009-08-05 06:06:12 51°13.662 2°55.96 23.1736 2.475018 15.776832 39.395334
2009-08-05 06:06:17 51°13.662 2°55.96 23.1735 2.475018 15.777098 39.395334
2009-08-05 06:06:22 51°13.662 2°55.96 23.1736 2.475018 15.777098 39.395334
2009-08-05 06:06:26 51°13.662 2°55.96 23.1739 2.475018 15.777098 39.395334
2009-08-05 06:06:32 51°13.662 2°55.96 23.174 2.475018 15.777098 39.395334
2009-08-05 06:06:36 51°13.662 2°55.96 23.1746 2.475018 15.777098 39.395334
2009-08-05 06:06:42 51°13.662 2°55.96 23.1744 2.474914 15.776642 39.395334
2009-08-05 06:06:47 51°13.662 2°55.96 23.1745 2.474914 15.776642 39.395334
2009-08-05 06:06:51 51°13.662 2°55.96 23.175 2.474914 15.776642 39.395334
2009-08-05 06:06:56 51°13.662 2°55.96 23.1742 2.474914 15.776642 39.395334
2009-08-05 06:07:02 51°13.662 2°55.96 23.1739 2.474914 15.776907 39.395334
2009-08-05 06:07:07 51°13.662 2°55.96 23.1743 2.474914 15.776907 39.36051
2009-08-05 06:07:12 51°13.662 2°55.96 23.1747 2.474914 15.776907 39.395334
2009-08-05 06:07:16 51°13.662 2°55.96 23.1744 2.474914 15.776907 39.395334
2009-08-05 06:07:22 51°13.662 2°55.96 23.1748 2.474914 15.776907 39.395334
2009-08-05 06:07:27 51°13.662 2°55.96 23.1748 2.474914 15.777173 39.395334
2009-08-05 06:07:32 51°13.662 2°55.96 23.1743 2.474914 15.777173 39.36051
2009-08-05 06:07:36 51°13.662 2°55.96 23.1739 2.474811 15.776451 39.36051
2009-08-05 06:07:42 51°13.662 2°55.96 23.1743 2.474811 15.776451 39.395334
2009-08-05 06:07:47 51°13.662 2°55.96 23.1737 2.474811 15.776716 39.36051
2009-08-05 06:07:52 51°13.662 2°55.96 23.1739 2.474811 15.776716 39.36051
2009-08-05 06:07:56 51°13.662 2°55.96 23.174 2.474811 15.776451 39.395334
2009-08-05 06:08:01 51°13.662 2°55.96 23.1733 2.474811 15.776716 39.36051
2009-08-05 06:08:07 51°13.662 2°55.96 23.1735 2.474811 15.776716 39.36051
2009-08-05 06:08:12 51°13.662 2°55.959 23.174 2.474811 15.776982 39.36051
2009-08-05 06:08:17 51°13.662 2°55.959 23.1742 2.474811 15.776716 39.36051
2009-08-05 06:08:21 51°13.662 2°55.959 23.1745 2.474811 15.776716 39.36051
2009-08-05 06:08:27 51°13.662 2°55.959 23.1742 2.474708 15.77626 39.36051
2009-08-05 06:08:32 51°13.662 2°55.959 23.1736 2.474708 15.77626 39.36051
2009-08-05 06:08:36 51°13.662 2°55.959 23.1739 2.474708 15.776526 39.36051
2009-08-05 06:08:42 51°13.662 2°55.959 23.1743 2.474708 15.776526 39.36051
2009-08-05 06:08:47 51°13.662 2°55.959 23.1746 2.474708 15.776526 39.36051
2009-08-05 06:08:52 51°13.662 2°55.959 23.1745 2.474708 15.776526 39.36051
2009-08-05 06:08:57 51°13.662 2°55.959 23.1749 2.474708 15.776791 39.36051
2009-08-05 06:09:02 51°13.662 2°55.959 23.1744 2.474708 15.776526 39.36051
2009-08-05 06:09:07 51°13.662 2°55.959 23.1741 2.474708 15.776791 39.36051
2009-08-05 06:09:12 51°13.662 2°55.959 23.1743 2.474708 15.777057 39.36051
2009-08-05 06:09:16 51°13.662 2°55.959 23.1749 2.474708 15.776791 39.36051
2009-08-05 06:09:22 51°13.662 2°55.959 23.1746 2.474708 15.776791 39.36051
2009-08-05 06:09:27 51°13.662 2°55.959 23.1743 2.474604 15.77607 39.325686
2009-08-05 06:09:32 51°13.662 2°55.959 23.1748 2.474604 15.776335 39.36051
2009-08-05 06:09:36 51°13.662 2°55.959 23.1744 2.474604 15.776335 39.325686
2009-08-05 06:09:41 51°13.662 2°55.959 23.1748 2.474604 15.776601 39.325686
2009-08-05 06:09:47 51°13.662 2°55.959 23.175 2.474604 15.776601 39.325686
2009-08-05 06:09:52 51°13.662 2°55.959 23.1749 2.474604 15.776601 39.325686
2009-08-05 06:09:56 51°13.662 2°55.959 23.175 2.474604 15.776601 39.325686
2009-08-05 06:10:02 51°13.662 2°55.959 23.1749 2.474604 15.776601 39.325686
2009-08-05 06:10:07 51°13.662 2°55.959 23.1756 2.474604 15.776866 39.325686
2009-08-05 06:10:12 51°13.662 2°55.959 23.1758 2.474501 15.776144 39.325686
2009-08-05 06:10:16 51°13.662 2°55.959 23.1756 2.474501 15.776144 39.325686
2009-08-05 06:10:21 51°13.662 2°55.959 23.1747 2.474501 15.776144 39.325686
2009-08-05 06:10:27 51°13.662 2°55.959 23.1752 2.474501 15.776144 39.325686
2009-08-05 06:10:32 51°13.662 2°55.959 23.1742 2.474501 15.776144 39.325686
2009-08-05 06:10:36 51°13.662 2°55.959 23.175 2.474501 15.77641 39.325686
2009-08-05 06:10:42 51°13.662 2°55.959 23.1747 2.474501 15.77641 39.325686
2009-08-05 06:10:47 51°13.662 2°55.959 23.175 2.474501 15.77641 39.325686
2009-08-05 06:10:52 51°13.662 2°55.959 23.1738 2.474501 15.77641 39.325686
2009-08-05 06:10:56 51°13.662 2°55.959 23.1744 2.474501 15.77641 39.325686
2009-08-05 06:11:02 51°13.662 2°55.959 23.1736 2.474501 15.776675 39.325686
2009-08-05 06:11:07 51°13.662 2°55.959 23.1749 2.474398 15.775954 39.325686
2009-08-05 06:11:12 51°13.662 2°55.959 23.1744 2.474398 15.775954 39.290862
2009-08-05 06:11:16 51°13.662 2°55.959 23.1747 2.474398 15.776219 39.325686
2009-08-05 06:11:22 51°13.662 2°55.959 23.1747 2.474398 15.776219 39.325686
2009-08-05 06:11:27 51°13.662 2°55.959 23.1738 2.474398 15.776219 39.290862
2009-08-05 06:11:31 51°13.662 2°55.959 23.1733 2.474398 15.776219 39.325686
2009-08-05 06:11:36 51°13.662 2°55.959 23.1736 2.474398 15.776219 39.290862
2009-08-05 06:11:42 51°13.662 2°55.959 23.1736 2.474398 15.776485 39.290862
2009-08-05 06:11:47 51°13.662 2°55.959 23.1739 2.474398 15.776485 39.290862
2009-08-05 06:11:52 51°13.662 2°55.959 23.1738 2.474398 15.776485 39.290862
2009-08-05 06:11:56 51°13.662 2°55.959 23.1752 2.474294 15.775763 39.290862
2009-08-05 06:12:02 51°13.662 2°55.959 23.1743 2.474398 15.776485 39.290862
2009-08-05 06:12:07 51°13.662 2°55.959 23.1751 2.474294 15.776029 39.290862
2009-08-05 06:12:12 51°13.662 2°55.959 23.1749 2.474294 15.776029 39.290862
2009-08-05 06:12:16 51°13.662 2°55.959 23.1767 2.474294 15.776029 39.290862
2009-08-05 06:12:22 51°13.662 2°55.959 23.1754 2.474294 15.776029 39.290862
2009-08-05 06:12:27 51°13.662 2°55.959 23.1766 2.474294 15.776294 39.290862
2009-08-05 06:12:32 51°13.662 2°55.959 23.1766 2.474294 15.776294 39.290862
2009-08-05 06:12:36 51°13.662 2°55.959 23.1767 2.474191 15.775572 39.290862
2009-08-05 06:12:42 51°13.662 2°55.959 23.175 2.474191 15.775838 39.290862
2009-08-05 06:12:47 51°13.662 2°55.959 23.1751 2.474191 15.775838 39.290862
2009-08-05 06:12:52 51°13.662 2°55.959 23.1748 2.474191 15.775838 39.290862
2009-08-05 06:12:56 51°13.662 2°55.959 23.1754 2.474191 15.776103 39.290862
2009-08-05 06:13:02 51°13.662 2°55.959 23.1758 2.474191 15.776103 39.290862
2009-08-05 06:13:07 51°13.662 2°55.959 23.1762 2.474191 15.776103 39.290862
2009-08-05 06:13:12 51°13.662 2°55.959 23.1768 2.474191 15.776103 39.290862
2009-08-05 06:13:17 51°13.662 2°55.959 23.1775 2.474191 15.776369 39.290862
2009-08-05 06:13:22 51°13.662 2°55.959 23.1776 2.474191 15.776369 39.290862
2009-08-05 06:13:27 51°13.662 2°55.959 23.1783 2.474191 15.776634 39.256038
2009-08-05 06:13:31 51°13.662 2°55.959 23.1781 2.474191 15.776634 39.256038
2009-08-05 06:13:36 51°13.662 2°55.959 23.1783 2.474088 15.775913 39.256038
2009-08-05 06:13:42 51°13.662 2°55.959 23.1781 2.474088 15.775913 39.256038
2009-08-05 06:13:47 51°13.662 2°55.959 23.179 2.474088 15.776178 39.256038
2009-08-05 06:13:51 51°13.662 2°55.959 23.1787 2.474088 15.776178 39.256038
2009-08-05 06:13:56 51°13.662 2°55.959 23.1789 2.474088 15.776178 39.256038
2009-08-05 06:14:02 51°13.662 2°55.959 23.1791 2.474088 15.776444 39.256038
2009-08-05 06:14:07 51°13.662 2°55.959 23.1789 2.474088 15.776444 39.256038
2009-08-05 06:14:12 51°13.662 2°55.959 23.1785 2.474088 15.776444 39.256038
2009-08-05 06:14:16 51°13.662 2°55.959 23.1786 2.474088 15.776444 39.256038
2009-08-05 06:14:22 51°13.662 2°55.959 23.178 2.474088 15.776444 39.256038
2009-08-05 06:14:27 51°13.662 2°55.959 23.1782 2.474088 15.776709 39.256038
2009-08-05 06:14:32 51°13.662 2°55.959 23.1786 2.473984 15.775988 39.256038
2009-08-05 06:14:36 51°13.662 2°55.96 23.1779 2.473984 15.775988 39.256038
2009-08-05 06:14:42 51°13.662 2°55.96 23.1781 2.473984 15.776253 39.256038
2009-08-05 06:14:47 51°13.662 2°55.96 23.1783 2.473984 15.776253 39.256038
2009-08-05 06:14:52 51°13.662 2°55.96 23.1788 2.473984 15.776253 39.256038
2009-08-05 06:14:57 51°13.662 2°55.96 23.1784 2.473984 15.776519 39.256038
2009-08-05 06:15:02 51°13.662 2°55.96 23.179 2.473984 15.776519 39.256038
2009-08-05 06:15:06 51°13.662 2°55.96 23.1791 2.473984 15.776519 39.256038
2009-08-05 06:15:12 51°13.662 2°55.96 23.1791 2.473881 15.776062 39.256038
2009-08-05 06:15:16 51°13.663 2°55.96 23.1795 2.473881 15.776062 39.256038
2009-08-05 06:15:22 51°13.662 2°55.96 23.1787 2.473881 15.776062 39.256038
2009-08-05 06:15:27 51°13.662 2°55.96 23.179 2.473881 15.776328 39.221214
2009-08-05 06:15:32 51°13.662 2°55.96 23.1783 2.473881 15.776328 39.256038
2009-08-05 06:15:36 51°13.662 2°55.96 23.1772 2.473881 15.776328 39.256038
2009-08-05 06:15:42 51°13.662 2°55.96 23.1761 2.473881 15.776594 39.221214
2009-08-05 06:15:47 51°13.662 2°55.96 23.1761 2.473777 15.775872 39.256038
2009-08-05 06:15:51 51°13.662 2°55.96 23.1755 2.473777 15.775872 39.256038
2009-08-05 06:15:56 51°13.662 2°55.96 23.1756 2.473777 15.775872 39.221214
2009-08-05 06:16:02 51°13.662 2°55.96 23.1757 2.473778 15.776137 39.221214
2009-08-05 06:16:07 51°13.662 2°55.96 23.1761 2.473778 15.776403 39.221214
2009-08-05 06:16:12 51°13.662 2°55.96 23.1768 2.473778 15.776403 39.221214
2009-08-05 06:16:16 51°13.662 2°55.96 23.1771 2.473778 15.776403 39.221214
2009-08-05 06:16:22 51°13.662 2°55.96 23.178 2.473778 15.776403 39.221214
2009-08-05 06:16:27 51°13.662 2°55.96 23.1778 2.473778 15.776668 39.221214
2009-08-05 06:16:32 51°13.662 2°55.96 23.1787 2.473778 15.776668 39.221214
2009-08-05 06:16:36 51°13.662 2°55.96 23.1791 2.473674 15.776212 39.221214
2009-08-05 06:16:42 51°13.662 2°55.96 23.1792 2.473674 15.776212 39.221214
2009-08-05 06:16:47 51°13.662 2°55.96 23.1799 2.473674 15.776212 39.221214
2009-08-05 06:16:52 51°13.662 2°55.96 23.1802 2.473674 15.776212 39.221214
2009-08-05 06:16:56 51°13.662 2°55.96 23.1798 2.473674 15.776478 39.221214
2009-08-05 06:17:02 51°13.662 2°55.96 23.1804 2.473674 15.776478 39.18639
2009-08-05 06:17:07 51°13.662 2°55.96 23.181 2.473674 15.776478 39.221214
2009-08-05 06:17:12 51°13.662 2°55.961 23.1818 2.473571 15.776022 39.18639
2009-08-05 06:17:16 51°13.662 2°55.961 23.1824 2.473674 15.776743 39.221214
2009-08-05 06:17:22 51°13.663 2°55.961 23.1824 2.473674 15.776743 39.221214
2009-08-05 06:17:27 51°13.663 2°55.961 23.1832 2.473571 15.776287 39.18639
2009-08-05 06:17:32 51°13.663 2°55.961 23.1838 2.473571 15.776287 39.18639
2009-08-05 06:17:36 51°13.663 2°55.961 23.1841 2.473571 15.776287 39.18639
2009-08-05 06:17:42 51°13.663 2°55.961 23.184 2.473571 15.776553 39.18639
2009-08-05 06:17:47 51°13.663 2°55.961 23.1841 2.473467 15.776096 39.221214
2009-08-05 06:17:51 51°13.662 2°55.961 23.1846 2.473467 15.776096 39.221214
2009-08-05 06:17:56 51°13.662 2°55.961 23.184 2.473467 15.776096 39.18639
2009-08-05 06:18:02 51°13.662 2°55.961 23.185 2.473467 15.776096 39.18639
2009-08-05 06:18:07 51°13.662 2°55.961 23.1843 2.473467 15.776096 39.18639
2009-08-05 06:18:12 51°13.662 2°55.961 23.1842 2.473467 15.776096 39.18639
2009-08-05 06:18:16 51°13.662 2°55.961 23.1835 2.473467 15.776362 39.18639
2009-08-05 06:18:22 51°13.663 2°55.961 23.1833 2.473467 15.776362 39.18639
2009-08-05 06:18:27 51°13.663 2°55.961 23.1829 2.473467 15.776628 39.18639
2009-08-05 06:18:32 51°13.663 2°55.961 23.1834 2.473467 15.776628 39.18639
2009-08-05 06:18:36 51°13.663 2°55.961 23.1836 2.473364 15.775906 39.18639
2009-08-05 06:18:42 51°13.663 2°55.961 23.184 2.473364 15.776171 39.18639
2009-08-05 06:18:47 51°13.663 2°55.961 23.1845 2.473364 15.776171 39.18639
2009-08-05 06:18:51 51°13.663 2°55.961 23.1838 2.473364 15.776171 39.18639
2009-08-05 06:18:56 51°13.663 2°55.961 23.1842 2.473364 15.776171 39.18639
2009-08-05 06:19:02 51°13.663 2°55.961 23.1838 2.473364 15.776437 39.18639
2009-08-05 06:19:07 51°13.663 2°55.961 23.1831 2.473261 15.775981 39.18639
2009-08-05 06:19:12 51°13.663 2°55.961 23.182 2.473261 15.775981 39.18639
2009-08-05 06:19:16 51°13.663 2°55.961 23.1823 2.473261 15.775981 39.151566
2009-08-05 06:19:22 51°13.663 2°55.961 23.1818 2.473261 15.775981 39.151566
2009-08-05 06:19:27 51°13.663 2°55.961 23.1837 2.473261 15.776246 39.18639
2009-08-05 06:19:32 51°13.663 2°55.961 23.1835 2.473261 15.776246 39.151566
2009-08-05 06:19:36 51°13.663 2°55.96 23.1842 2.473261 15.776512 39.151566
2009-08-05 06:19:42 51°13.663 2°55.96 23.184 2.473157 15.77579 39.18639
2009-08-05 06:19:47 51°13.663 2°55.96 23.1835 2.473157 15.77579 39.18639
2009-08-05 06:19:52 51°13.663 2°55.96 23.1841 2.473157 15.77579 39.18639
2009-08-05 06:19:57 51°13.663 2°55.96 23.1844 2.473157 15.776056 39.151566
2009-08-05 06:20:02 51°13.663 2°55.96 23.1839 2.473157 15.776056 39.151566
2009-08-05 06:20:07 51°13.663 2°55.96 23.1846 2.473157 15.776321 39.151566
2009-08-05 06:20:12 51°13.663 2°55.96 23.1837 2.473054 15.775334 39.151566
2009-08-05 06:20:17 51°13.663 2°55.96 23.1846 2.473054 15.775599 39.151566
2009-08-05 06:20:22 51°13.663 2°55.96 23.1844 2.473054 15.775599 39.151566
2009-08-05 06:20:27 51°13.662 2°55.96 23.1848 2.473054 15.775865 39.151566
2009-08-05 06:20:32 51°13.663 2°55.96 23.1856 2.473054 15.775865 39.151566
2009-08-05 06:20:36 51°13.663 2°55.96 23.1859 2.473054 15.775865 39.151566
2009-08-05 06:20:42 51°13.663 2°55.96 23.1859 2.473054 15.776131 39.151566
2009-08-05 06:20:47 51°13.663 2°55.96 23.1873 2.472951 15.775674 39.151566
2009-08-05 06:20:52 51°13.663 2°55.96 23.1875 2.472951 15.775674 39.151566
2009-08-05 06:20:56 51°13.663 2°55.959 23.1877 2.472951 15.775674 39.151566
2009-08-05 06:21:02 51°13.663 2°55.959 23.1876 2.472951 15.77594 39.151566
2009-08-05 06:21:07 51°13.663 2°55.959 23.1878 2.472951 15.77594 39.151566
2009-08-05 06:21:12 51°13.663 2°55.96 23.1874 2.472951 15.77594 39.151566
2009-08-05 06:21:16 51°13.663 2°55.96 23.187 2.472951 15.77594 39.116742
2009-08-05 06:21:22 51°13.663 2°55.96 23.1864 2.472951 15.77594 39.116742
2009-08-05 06:21:27 51°13.663 2°55.959 23.1873 2.472847 15.775484 39.151566
2009-08-05 06:21:32 51°13.663 2°55.959 23.1873 2.472847 15.775749 39.151566
2009-08-05 06:21:36 51°13.663 2°55.959 23.1869 2.472847 15.775749 39.116742
2009-08-05 06:21:42 51°13.663 2°55.959 23.1875 2.472847 15.775749 39.116742
2009-08-05 06:21:47 51°13.663 2°55.959 23.1874 2.472847 15.776015 39.116742
2009-08-05 06:21:52 51°13.663 2°55.959 23.189 2.472847 15.776015 39.116742
2009-08-05 06:21:57 51°13.663 2°55.959 23.1894 2.472744 15.775293 39.116742
2009-08-05 06:22:02 51°13.663 2°55.959 23.1896 2.472744 15.775559 39.116742
2009-08-05 06:22:06 51°13.663 2°55.959 23.1905 2.472744 15.775559 39.151566
2009-08-05 06:22:12 51°13.663 2°55.959 23.1908 2.472744 15.775559 39.116742
2009-08-05 06:22:16 51°13.663 2°55.959 23.1912 2.472744 15.775824 39.116742
2009-08-05 06:22:22 51°13.663 2°55.959 23.1909 2.472744 15.775824 39.116742
2009-08-05 06:22:27 51°13.663 2°55.959 23.1915 2.472641 15.775102 39.116742
2009-08-05 06:22:32 51°13.663 2°55.959 23.1914 2.472641 15.775368 39.116742
2009-08-05 06:22:36 51°13.663 2°55.959 23.1918 2.472641 15.775368 39.116742
2009-08-05 06:22:42 51°13.663 2°55.959 23.192 2.472641 15.775634 39.116742
2009-08-05 06:22:47 51°13.663 2°55.959 23.1918 2.472641 15.775634 39.116742
2009-08-05 06:22:52 51°13.663 2°55.959 23.1923 2.472641 15.775634 39.116742
2009-08-05 06:22:57 51°13.663 2°55.959 23.1924 2.472641 15.775634 39.116742
2009-08-05 06:23:02 51°13.663 2°55.959 23.1926 2.472537 15.775177 39.116742
2009-08-05 06:23:07 51°13.663 2°55.959 23.1918 2.472537 15.775177 39.081918
2009-08-05 06:23:12 51°13.663 2°55.959 23.1922 2.472537 15.775177 39.116742
2009-08-05 06:23:16 51°13.663 2°55.959 23.1923 2.472434 15.774721 39.081918
2009-08-05 06:23:22 51°13.663 2°55.959 23.192 2.472434 15.774721 39.081918
2009-08-05 06:23:27 51°13.663 2°55.959 23.1921 2.472537 15.775443 39.081918
2009-08-05 06:23:32 51°13.663 2°55.959 23.1923 2.472434 15.774987 39.081918
2009-08-05 06:23:36 51°13.664 2°55.96 23.1917 2.472434 15.774987 39.081918
2009-08-05 06:23:42 51°13.664 2°55.959 23.1912 2.472434 15.775252 39.081918
2009-08-05 06:23:47 51°13.664 2°55.959 23.1912 2.472434 15.775252 39.081918
2009-08-05 06:23:52 51°13.663 2°55.959 23.192 2.472434 15.775252 39.081918
2009-08-05 06:23:56 51°13.663 2°55.959 23.1924 2.472434 15.775252 39.081918
2009-08-05 06:24:02 51°13.664 2°55.959 23.1918 2.47233 15.774796 39.116742
2009-08-05 06:24:07 51°13.663 2°55.959 23.1912 2.47233 15.775062 39.081918
2009-08-05 06:24:12 51°13.663 2°55.959 23.1908 2.47233 15.775062 39.081918
2009-08-05 06:24:17 51°13.663 2°55.959 23.1913 2.47233 15.775062 39.081918
2009-08-05 06:24:22 51°13.663 2°55.959 23.1916 2.47233 15.775062 39.081918
2009-08-05 06:24:27 51°13.663 2°55.959 23.1919 2.47233 15.775327 39.081918
2009-08-05 06:24:32 51°13.663 2°55.959 23.1918 2.47233 15.775327 39.081918
2009-08-05 06:24:37 51°13.664 2°55.959 23.1913 2.47233 15.775593 39.081918
2009-08-05 06:24:42 51°13.663 2°55.959 23.1916 2.472227 15.774871 39.081918
2009-08-05 06:24:47 51°13.663 2°55.959 23.1902 2.472227 15.775137 39.081918
2009-08-05 06:24:52 51°13.663 2°55.959 23.1895 2.472227 15.775137 39.081918
2009-08-05 06:24:56 51°13.663 2°55.959 23.1894 2.472227 15.775137 39.081918
2009-08-05 06:25:02 51°13.663 2°55.959 23.1891 2.472227 15.775137 39.081918
2009-08-05 06:25:07 51°13.663 2°55.959 23.1885 2.472227 15.775403 39.081918
2009-08-05 06:25:11 51°13.663 2°55.959 23.1877 2.472227 15.775403 39.047094
2009-08-05 06:25:17 51°13.663 2°55.959 23.1881 2.472124 15.774946 39.081918
2009-08-05 06:25:22 51°13.663 2°55.959 23.1877 2.472124 15.774946 39.081918
2009-08-05 06:25:27 51°13.663 2°55.959 23.188 2.472124 15.774946 39.047094
2009-08-05 06:25:32 51°13.664 2°55.959 23.1877 2.472124 15.775212 39.047094
2009-08-05 06:25:36 51°13.664 2°55.959 23.1877 2.472124 15.775212 39.047094
2009-08-05 06:25:42 51°13.664 2°55.959 23.1874 2.472124 15.775212 39.047094
2009-08-05 06:25:47 51°13.664 2°55.959 23.1867 2.472124 15.775478 39.047094
2009-08-05 06:25:52 51°13.664 2°55.959 23.1842 2.472124 15.775478 39.047094
2009-08-05 06:25:56 51°13.664 2°55.959 23.1851 2.47202 15.774755 39.047094
2009-08-05 06:26:02 51°13.664 2°55.96 23.1858 2.47202 15.775021 39.047094
2009-08-05 06:26:07 51°13.664 2°55.96 23.1874 2.47202 15.775021 39.047094
2009-08-05 06:26:12 51°13.664 2°55.96 23.1888 2.47202 15.775021 39.047094
2009-08-05 06:26:16 51°13.664 2°55.96 23.1894 2.47202 15.775287 39.047094
2009-08-05 06:26:22 51°13.663 2°55.96 23.189 2.47202 15.775287 39.047094
2009-08-05 06:26:27 51°13.664 2°55.96 23.1888 2.471917 15.774565 39.047094
2009-08-05 06:26:32 51°13.664 2°55.96 23.1898 2.471917 15.77483 39.047094
2009-08-05 06:26:37 51°13.664 2°55.96 23.19 2.471917 15.77483 39.047094
2009-08-05 06:26:42 51°13.664 2°55.96 23.1906 2.471917 15.77483 39.047094
2009-08-05 06:26:47 51°13.664 2°55.96 23.1913 2.471917 15.775096 39.047094
2009-08-05 06:26:52 51°13.664 2°55.96 23.1917 2.471917 15.775096 39.047094
2009-08-05 06:26:56 51°13.663 2°55.959 23.1915 2.471814 15.774374 39.047094
2009-08-05 06:27:02 51°13.663 2°55.959 23.1927 2.471814 15.77464 39.047094
2009-08-05 06:27:07 51°13.663 2°55.959 23.1934 2.471814 15.774906 39.01227
2009-08-05 06:27:12 51°13.663 2°55.959 23.1946 2.471814 15.774906 39.01227
2009-08-05 06:27:17 51°13.664 2°55.959 23.1939 2.471814 15.774906 39.01227
2009-08-05 06:27:22 51°13.664 2°55.959 23.1942 2.471814 15.774906 39.01227
2009-08-05 06:27:27 51°13.663 2°55.959 23.194 2.47171 15.774183 39.01227
2009-08-05 06:27:32 51°13.663 2°55.959 23.1945 2.47171 15.774449 39.01227
2009-08-05 06:27:37 51°13.663 2°55.959 23.1947 2.47171 15.774449 39.01227
2009-08-05 06:27:42 51°13.663 2°55.959 23.1946 2.47171 15.774715 39.01227
2009-08-05 06:27:47 51°13.663 2°55.959 23.1958 2.47171 15.774715 39.01227
2009-08-05 06:27:52 51°13.663 2°55.959 23.1962 2.47171 15.774715 39.01227
2009-08-05 06:27:56 51°13.663 2°55.959 23.1945 2.471607 15.774258 39.01227
2009-08-05 06:28:02 51°13.663 2°55.959 23.1942 2.471607 15.774258 39.01227
2009-08-05 06:28:07 51°13.663 2°55.959 23.1943 2.471607 15.774258 39.01227
2009-08-05 06:28:12 51°13.663 2°55.959 23.1947 2.471607 15.774524 38.977445
2009-08-05 06:28:16 51°13.663 2°55.959 23.1945 2.471607 15.774524 39.01227
2009-08-05 06:28:22 51°13.663 2°55.959 23.1944 2.471607 15.774524 39.01227
2009-08-05 06:28:27 51°13.663 2°55.959 23.1943 2.471504 15.773802 39.01227
2009-08-05 06:28:32 51°13.663 2°55.959 23.1936 2.471504 15.774068 39.01227
2009-08-05 06:28:36 51°13.663 2°55.959 23.1932 2.471504 15.774068 39.01227
2009-08-05 06:28:42 51°13.663 2°55.959 23.193 2.471504 15.774334 39.01227
2009-08-05 06:28:47 51°13.663 2°55.959 23.1929 2.471504 15.774334 39.01227
2009-08-05 06:28:52 51°13.663 2°55.959 23.1928 2.471504 15.774334 39.01227
2009-08-05 06:28:56 51°13.663 2°55.959 23.1927 2.4714 15.773877 39.01227
2009-08-05 06:29:02 51°13.663 2°55.959 23.1932 2.4714 15.773877 39.01227
2009-08-05 06:29:07 51°13.663 2°55.959 23.1944 2.4714 15.774143 39.01227
2009-08-05 06:29:12 51°13.663 2°55.959 23.1943 2.4714 15.774143 39.01227
2009-08-05 06:29:16 51°13.663 2°55.959 23.1945 2.4714 15.774409 39.01227
2009-08-05 06:29:22 51°13.663 2°55.959 23.1932 2.4714 15.774409 39.01227
2009-08-05 06:29:27 51°13.663 2°55.959 23.1945 2.4714 15.774409 39.01227
2009-08-05 06:29:32 51°13.663 2°55.959 23.1956 2.471297 15.773686 39.01227
2009-08-05 06:29:37 51°13.663 2°55.959 23.1952 2.471297 15.773952 38.977445
2009-08-05 06:29:42 51°13.663 2°55.959 23.196 2.471297 15.773952 38.977445
2009-08-05 06:29:47 51°13.663 2°55.959 23.1968 2.471297 15.774218 38.977445
2009-08-05 06:29:52 51°13.663 2°55.959 23.1975 2.471297 15.774218 38.977445
2009-08-05 06:29:56 51°13.663 2°55.959 23.1985 2.471297 15.774218 38.977445
2009-08-05 06:30:02 51°13.663 2°55.959 23.199 2.471297 15.774218 38.977445
2009-08-05 06:30:07 51°13.663 2°55.959 23.1983 2.471193 15.774027 38.977445
2009-08-05 06:30:12 51°13.663 2°55.959 23.1986 2.471193 15.773761 38.977445
2009-08-05 06:30:16 51°13.663 2°55.959 23.199 2.471193 15.773761 38.977445
2009-08-05 06:30:22 51°13.663 2°55.959 23.1991 2.471193 15.773761 38.977445
2009-08-05 06:30:27 51°13.663 2°55.959 23.1993 2.471193 15.774027 38.977445
2009-08-05 06:30:32 51°13.663 2°55.959 23.1997 2.471193 15.774293 38.977445
2009-08-05 06:30:36 51°13.663 2°55.959 23.2003 2.47109 15.773571 38.977445
2009-08-05 06:30:42 51°13.663 2°55.959 23.2007 2.47109 15.773571 38.977445
2009-08-05 06:30:47 51°13.663 2°55.959 23.2013 2.47109 15.773837 38.977445
2009-08-05 06:30:52 51°13.663 2°55.959 23.2011 2.47109 15.773837 38.977445
2009-08-05 06:30:57 51°13.663 2°55.959 23.2 2.47109 15.774102 38.977445
2009-08-05 06:31:02 51°13.663 2°55.959 23.1989 2.47109 15.774102 38.942621
2009-08-05 06:31:07 51°13.663 2°55.959 23.1983 2.470987 15.773646 38.977445
2009-08-05 06:31:12 51°13.663 2°55.959 23.1989 2.470987 15.77338 38.942621
2009-08-05 06:31:17 51°13.663 2°55.959 23.1994 2.470987 15.773646 38.977445
2009-08-05 06:31:22 51°13.663 2°55.959 23.1997 2.470987 15.773646 38.977445
2009-08-05 06:31:27 51°13.663 2°55.959 23.2006 2.470987 15.773646 38.942621
2009-08-05 06:31:32 51°13.663 2°55.959 23.2006 2.470987 15.773912 38.977445
2009-08-05 06:31:37 51°13.663 2°55.959 23.2009 2.470883 15.773189 38.942621
2009-08-05 06:31:42 51°13.663 2°55.959 23.2012 2.470883 15.773455 38.942621
2009-08-05 06:31:47 51°13.663 2°55.959 23.2008 2.470883 15.773455 38.942621
2009-08-05 06:31:51 51°13.663 2°55.959 23.2016 2.470883 15.773455 38.942621
2009-08-05 06:31:57 51°13.663 2°55.959 23.2017 2.470883 15.773455 38.942621
2009-08-05 06:32:02 51°13.663 2°55.959 23.2016 2.470883 15.773721 38.942621
2009-08-05 06:32:07 51°13.663 2°55.959 23.2019 2.470883 15.773987 38.942621
2009-08-05 06:32:12 51°13.663 2°55.959 23.2027 2.47078 15.773264 38.942621
2009-08-05 06:32:16 51°13.663 2°55.959 23.2032 2.47078 15.77353 38.942621
2009-08-05 06:32:22 51°13.663 2°55.959 23.2041 2.47078 15.77353 38.942621
2009-08-05 06:32:27 51°13.663 2°55.959 23.2041 2.47078 15.77353 38.942621
2009-08-05 06:32:32 51°13.663 2°55.959 23.2045 2.47078 15.77353 38.942621
2009-08-05 06:32:36 51°13.663 2°55.959 23.2046 2.47078 15.773796 38.942621
2009-08-05 06:32:42 51°13.663 2°55.959 23.2058 2.470677 15.77334 38.907797
2009-08-05 06:32:47 51°13.663 2°55.959 23.206 2.470677 15.77334 38.907797
2009-08-05 06:32:52 51°13.663 2°55.959 23.2062 2.470677 15.77334 38.907797
2009-08-05 06:32:56 51°13.663 2°55.959 23.2065 2.470677 15.77334 38.942621
2009-08-05 06:33:02 51°13.663 2°55.959 23.2064 2.470677 15.773605 38.942621
2009-08-05 06:33:07 51°13.663 2°55.959 23.2061 2.470677 15.773605 38.907797
2009-08-05 06:33:12 51°13.663 2°55.959 23.2072 2.470573 15.772883 38.942621
2009-08-05 06:33:16 51°13.663 2°55.959 23.2065 2.470573 15.773149 38.942621
2009-08-05 06:33:22 51°13.663 2°55.959 23.2075 2.470573 15.773149 38.942621
2009-08-05 06:33:27 51°13.663 2°55.959 23.2071 2.470573 15.773149 38.907797
2009-08-05 06:33:32 51°13.663 2°55.959 23.2077 2.470573 15.773415 38.907797
2009-08-05 06:33:36 51°13.663 2°55.959 23.2076 2.470573 15.773415 38.907797
2009-08-05 06:33:42 51°13.663 2°55.959 23.2083 2.470573 15.773415 38.907797
2009-08-05 06:33:47 51°13.663 2°55.959 23.2077 2.47047 15.772958 38.907797
2009-08-05 06:33:52 51°13.663 2°55.959 23.2083 2.47047 15.772958 38.907797
2009-08-05 06:33:57 51°13.663 2°55.959 23.2081 2.47047 15.772958 38.907797
2009-08-05 06:34:02 51°13.663 2°55.959 23.209 2.47047 15.772958 38.907797
2009-08-05 06:34:07 51°13.663 2°55.958 23.211 2.47047 15.773224 38.907797
2009-08-05 06:34:12 51°13.663 2°55.958 23.2116 2.470367 15.772501 38.907797
2009-08-05 06:34:16 51°13.663 2°55.958 23.2134 2.470367 15.772767 38.907797
2009-08-05 06:34:22 51°13.663 2°55.958 23.214 2.470367 15.772767 38.907797
2009-08-05 06:34:27 51°13.663 2°55.958 23.2164 2.470367 15.772767 38.907797
2009-08-05 06:34:32 51°13.663 2°55.958 23.219 2.470367 15.773033 38.907797
2009-08-05 06:34:36 51°13.663 2°55.959 23.2198 2.470367 15.773033 38.872973
2009-08-05 06:34:42 51°13.663 2°55.959 23.2199 2.470367 15.773299 38.872973
2009-08-05 06:34:47 51°13.663 2°55.959 23.2191 2.470263 15.772577 38.907797
2009-08-05 06:34:52 51°13.663 2°55.958 23.2196 2.470263 15.772577 38.907797
2009-08-05 06:34:56 51°13.663 2°55.958 23.2195 2.470263 15.772577 38.907797
2009-08-05 06:35:02 51°13.663 2°55.958 23.2185 2.470263 15.772843 38.907797
2009-08-05 06:35:07 51°13.663 2°55.958 23.2176 2.470263 15.772843 38.907797
2009-08-05 06:35:12 51°13.663 2°55.958 23.2165 2.47016 15.77212 38.907797
2009-08-05 06:35:16 51°13.663 2°55.958 23.2155 2.47016 15.772386 38.872973
2009-08-05 06:35:22 51°13.663 2°55.958 23.2148 2.47016 15.772386 38.872973
2009-08-05 06:35:27 51°13.663 2°55.958 23.2141 2.47016 15.772652 38.872973
2009-08-05 06:35:32 51°13.663 2°55.958 23.2138 2.47016 15.772652 38.872973
2009-08-05 06:35:37 51°13.663 2°55.958 23.2143 2.47016 15.772652 38.872973
2009-08-05 06:35:42 51°13.663 2°55.958 23.2147 2.47016 15.772652 38.872973
2009-08-05 06:35:47 51°13.663 2°55.958 23.2151 2.47016 15.772918 38.872973
2009-08-05 06:35:52 51°13.663 2°55.958 23.2158 2.47016 15.772918 38.872973
2009-08-05 06:35:56 51°13.663 2°55.959 23.2158 2.470056 15.772461 38.872973
2009-08-05 06:36:02 51°13.663 2°55.958 23.2158 2.470057 15.772727 38.872973
2009-08-05 06:36:07 51°13.663 2°55.958 23.2156 2.470056 15.772461 38.872973
2009-08-05 06:36:11 51°13.663 2°55.958 23.2166 2.470057 15.772727 38.872973
2009-08-05 06:36:17 51°13.663 2°55.958 23.2162 2.470057 15.772727 38.872973
2009-08-05 06:36:22 51°13.663 2°55.958 23.2163 2.470057 15.772727 38.872973
2009-08-05 06:36:27 51°13.663 2°55.959 23.2173 2.469953 15.77227 38.872973
2009-08-05 06:36:32 51°13.663 2°55.959 23.2173 2.469953 15.77227 38.872973
2009-08-05 06:36:37 51°13.663 2°55.959 23.2179 2.46985 15.771814 38.872973
2009-08-05 06:36:42 51°13.663 2°55.959 23.2181 2.469953 15.772536 38.872973
2009-08-05 06:36:47 51°13.663 2°55.959 23.2181 2.46985 15.771814 38.872973
2009-08-05 06:36:52 51°13.663 2°55.959 23.2178 2.46985 15.771814 38.872973
2009-08-05 06:36:56 51°13.663 2°55.959 23.2185 2.46985 15.77208 38.838149
2009-08-05 06:37:02 51°13.663 2°55.959 23.2188 2.46985 15.772346 38.838149
2009-08-05 06:37:07 51°13.663 2°55.959 23.2187 2.46985 15.772346 38.838149
2009-08-05 06:37:12 51°13.663 2°55.959 23.2198 2.46985 15.772612 38.838149
2009-08-05 06:37:16 51°13.663 2°55.959 23.2192 2.46985 15.772346 38.838149
2009-08-05 06:37:22 51°13.662 2°55.959 23.2204 2.46985 15.772346 38.838149
2009-08-05 06:37:27 51°13.662 2°55.959 23.2216 2.46985 15.772612 38.838149
2009-08-05 06:37:32 51°13.662 2°55.959 23.2206 2.469746 15.771889 38.872973
2009-08-05 06:37:36 51°13.662 2°55.959 23.222 2.469746 15.772155 38.838149
2009-08-05 06:37:42 51°13.662 2°55.959 23.2224 2.469746 15.772155 38.838149
2009-08-05 06:37:47 51°13.662 2°55.959 23.2231 2.469746 15.772421 38.838149
2009-08-05 06:37:52 51°13.662 2°55.959 23.2224 2.469746 15.772421 38.838149
2009-08-05 06:37:56 51°13.662 2°55.959 23.2224 2.469746 15.772421 38.838149
2009-08-05 06:38:02 51°13.662 2°55.959 23.2232 2.469643 15.771698 38.838149
2009-08-05 06:38:07 51°13.662 2°55.959 23.2226 2.469643 15.771964 38.838149
2009-08-05 06:38:12 51°13.662 2°55.959 23.2231 2.469643 15.771964 38.838149
2009-08-05 06:38:16 51°13.662 2°55.959 23.2238 2.469643 15.771964 38.838149
2009-08-05 06:38:22 51°13.662 2°55.959 23.2229 2.469643 15.771964 38.838149
2009-08-05 06:38:27 51°13.662 2°55.959 23.2231 2.469643 15.77223 38.838149
2009-08-05 06:38:32 51°13.663 2°55.959 23.2227 2.469643 15.77223 38.838149
2009-08-05 06:38:36 51°13.663 2°55.959 23.2228 2.46954 15.771773 38.838149
2009-08-05 06:38:42 51°13.663 2°55.959 23.2231 2.46954 15.771773 38.803325
2009-08-05 06:38:47 51°13.663 2°55.959 23.2234 2.46954 15.772039 38.838149
2009-08-05 06:38:52 51°13.663 2°55.959 23.2246 2.46954 15.772039 38.838149
2009-08-05 06:38:57 51°13.663 2°55.959 23.2249 2.46954 15.772039 38.838149
2009-08-05 06:39:02 51°13.663 2°55.959 23.2245 2.46954 15.772039 38.803325
2009-08-05 06:39:07 51°13.663 2°55.959 23.2248 2.469436 15.771582 38.803325
2009-08-05 06:39:12 51°13.663 2°55.959 23.2263 2.469436 15.771582 38.803325
2009-08-05 06:39:16 51°13.663 2°55.959 23.2254 2.469436 15.771582 38.803325
2009-08-05 06:39:22 51°13.663 2°55.959 23.2261 2.469436 15.771582 38.803325
2009-08-05 06:39:27 51°13.663 2°55.959 23.2265 2.469436 15.771849 38.803325
2009-08-05 06:39:32 51°13.663 2°55.959 23.2251 2.469436 15.771849 38.803325
2009-08-05 06:39:37 51°13.663 2°55.959 23.2147 2.469333 15.771392 38.803325
2009-08-05 06:39:42 51°13.663 2°55.959 23.204 2.469333 15.771126 38.803325
2009-08-05 06:39:47 51°13.663 2°55.959 23.2062 2.469333 15.771126 38.803325
2009-08-05 06:39:52 51°13.664 2°55.959 23.2005 2.469333 15.771126 38.803325
2009-08-05 06:39:56 51°13.664 2°55.959 23.2026 2.469333 15.771126 38.803325
2009-08-05 06:40:02 51°13.664 2°55.959 23.1997 2.46923 15.770669 38.803325
2009-08-05 06:40:07 51°13.664 2°55.959 23.1998 2.46923 15.770935 38.803325
2009-08-05 06:40:12 51°13.664 2°55.959 23.1995 2.46923 15.770935 38.803325
2009-08-05 06:40:16 51°13.664 2°55.959 23.1992 2.46923 15.770935 38.803325
2009-08-05 06:40:22 51°13.664 2°55.959 23.1971 2.46923 15.770935 38.803325
2009-08-05 06:40:27 51°13.664 2°55.959 23.1989 2.46923 15.770935 38.803325
2009-08-05 06:40:32 51°13.663 2°55.959 23.1966 2.469126 15.770478 38.803325
2009-08-05 06:40:37 51°13.664 2°55.959 23.1988 2.469126 15.770478 38.803325
2009-08-05 06:40:46 51°13.664 2°55.959 23.1974 2.469126 15.770744 38.803325
2009-08-05 06:40:50 51°13.664 2°55.959 23.1992 2.469126 15.77101 38.803325
2009-08-05 06:40:56 51°13.663 2°55.959 23.1986 2.469126 15.77101 38.803325
2009-08-05 06:41:00 51°13.663 2°55.959 23.1996 2.469126 15.77101 38.803325
2009-08-05 06:41:05 51°13.663 2°55.959 23.2 2.469126 15.77101 38.803325
2009-08-05 06:41:10 51°13.663 2°55.959 23.2017 2.469126 15.771276 38.768501
2009-08-05 06:41:15 51°13.663 2°55.959 23.2028 2.469126 15.771276 38.768501
2009-08-05 06:41:20 51°13.663 2°55.959 23.204 2.469023 15.770819 38.768501
2009-08-05 06:41:25 51°13.663 2°55.959 23.2052 2.469023 15.770819 38.768501
2009-08-05 06:41:30 51°13.663 2°55.959 23.2061 2.469023 15.770819 38.768501
2009-08-05 06:41:35 51°13.663 2°55.959 23.2075 2.469023 15.771085 38.768501
2009-08-05 06:41:39 51°13.663 2°55.959 23.208 2.469023 15.771085 38.768501
2009-08-05 06:41:44 51°13.663 2°55.959 23.2093 2.469023 15.771085 38.768501
2009-08-05 06:41:49 51°13.663 2°55.959 23.2102 2.46892 15.770362 38.768501
2009-08-05 06:41:54 51°13.664 2°55.959 23.2107 2.46892 15.770362 38.768501
2009-08-05 06:41:59 51°13.664 2°55.959 22.9445 2.46892 15.770629 38.768501
2009-08-05 06:42:04 51°13.664 2°55.959 22.2519 5.0268 34.702602 31.559922
2009-08-05 06:42:09 51°13.665 2°55.959 21.9492 5.023578 34.679393 30.584849
2009-08-05 06:42:14 51°13.665 2°55.959 21.6231 4.795386 33.020141 34.763735
2009-08-05 06:42:19 51°13.665 2°55.959 21.4562 4.89128 33.564755 24.525463
2009-08-05 06:42:23 51°13.664 2°55.959 21.3628 4.89128 33.564755 24.525463
2009-08-05 06:42:28 51°13.663 2°55.959 21.2541 4.91923 33.658589 21.112706
2009-08-05 06:42:33 51°13.663 2°55.959 21.2379 4.941053 33.806118 19.406327
2009-08-05 06:42:38 51°13.663 2°55.959 21.1668 4.920065 33.826159 18.117837
2009-08-05 06:42:43 51°13.662 2°55.959 21.14 4.907184 33.925304 17.734773
2009-08-05 06:42:48 51°13.662 2°55.96 21.0905 4.841105 33.664329 17.351708
2009-08-05 06:42:52 51°13.662 2°55.96 21.1291 4.841105 33.664329 17.351708
2009-08-05 06:42:57 51°13.663 2°55.959 21.0676 4.782826 33.386208 17.073116
2009-08-05 06:43:02 51°13.663 2°55.959 21.0431 4.742211 33.224525 16.933819
2009-08-05 06:43:07 51°13.663 2°55.959 21.0256 4.71261 33.090901 16.898995
2009-08-05 06:43:12 51°13.663 2°55.959 21.0079 4.694538 33.026089 16.864171
2009-08-05 06:43:17 51°13.664 2°55.959 20.9839 4.673871 32.915562 16.933819
2009-08-05 06:43:22 51°13.664 2°55.959 20.9723 4.673871 32.915562 16.933819
2009-08-05 06:43:27 51°13.664 2°55.959 20.9724 4.65902 32.840847 16.968644
2009-08-05 06:43:32 51°13.663 2°55.959 20.9423 4.657774 32.868842 17.038292
2009-08-05 06:43:36 51°13.663 2°55.959 20.9657 4.645208 32.799809 17.142764
2009-08-05 06:43:42 51°13.663 2°55.959 20.9204 4.642716 32.802231 17.247236
2009-08-05 06:43:47 51°13.663 2°55.959 20.8811 4.640744 32.811105 17.316884
2009-08-05 06:43:52 51°13.663 2°55.959 20.8862 4.640744 32.811105 17.316884
2009-08-05 06:43:56 51°13.663 2°55.959 20.8841 4.638044 32.811902 17.386532
2009-08-05 06:44:02 51°13.663 2°55.959 20.8618 4.636175 32.809942 17.491004
2009-08-05 06:44:07 51°13.664 2°55.959 20.8445 4.636279 32.823621 17.560652
2009-08-05 06:44:12 51°13.663 2°55.959 20.8521 4.633163 32.808278 17.665125
2009-08-05 06:44:16 51°13.663 2°55.959 20.838 4.632852 32.822184 17.769597
2009-08-05 06:44:22 51°13.663 2°55.959 20.8286 4.632852 32.822184 17.769597
2009-08-05 06:44:27 51°13.663 2°55.959 20.8109 4.632229 32.834219 17.839245
2009-08-05 06:44:32 51°13.663 2°55.959 20.7891 4.629426 32.827196 17.943717
2009-08-05 06:44:37 51°13.663 2°55.959 20.7826 4.619872 32.765398 17.978541
2009-08-05 06:44:42 51°13.663 2°55.959 20.8014 4.616549 32.751885 18.083013
2009-08-05 06:44:47 51°13.663 2°55.959 20.7885 4.626519 32.844571 18.152661
2009-08-05 06:44:52 51°13.663 2°55.959 20.7783 4.626519 32.844571 18.152661
2009-08-05 06:44:56 51°13.663 2°55.959 20.7769 4.627454 32.859637 18.257134
2009-08-05 06:45:02 51°13.663 2°55.959 20.7501 4.626104 32.860069 18.291958
2009-08-05 06:45:07 51°13.663 2°55.959 20.7422 4.625169 32.86616 18.361606
2009-08-05 06:45:12 51°13.663 2°55.959 20.7214 4.618108 32.820562 18.431254
2009-08-05 06:45:17 51°13.663 2°55.959 20.7277 4.624443 32.874499 18.500902
2009-08-05 06:45:22 51°13.663 2°55.959 20.6995 4.624443 32.874499 18.500902
2009-08-05 06:45:27 51°13.663 2°55.959 20.6892 4.624339 32.876616 18.57055
2009-08-05 06:45:32 51°13.663 2°55.959 20.674 4.62517 32.889709 18.605374
2009-08-05 06:45:36 51°13.663 2°55.959 20.6566 4.623924 32.888626 18.675022
2009-08-05 06:45:42 51°13.663 2°55.959 20.6704 4.620808 32.875601 18.74467
2009-08-05 06:45:47 51°13.663 2°55.959 20.6254 4.620913 32.888221 18.779494
2009-08-05 06:45:52 51°13.663 2°55.959 20.5993 4.620913 32.888221 18.779494
2009-08-05 06:45:56 51°13.663 2°55.959 20.5753 4.62029 32.895057 18.849142
2009-08-05 06:46:02 51°13.663 2°55.959 20.5458 4.615721 32.868665 18.953615
2009-08-05 06:46:07 51°13.663 2°55.959 20.5123 4.616448 32.884495 18.988439
2009-08-05 06:46:12 51°13.663 2°55.959 20.4721 4.616759 32.898795 19.058087
2009-08-05 06:46:16 51°13.663 2°55.959 20.4669 4.612502 32.874871 19.127735
2009-08-05 06:46:22 51°13.663 2°55.959 20.4273 4.612502 32.874871 19.127735
2009-08-05 06:46:27 51°13.663 2°55.959 20.3943 4.612087 32.894022 19.197383
2009-08-05 06:46:32 51°13.663 2°55.959 20.3766 4.61001 32.898743 19.336679
2009-08-05 06:46:36 51°13.663 2°55.959 20.3374 4.607934 32.899918 19.475975
2009-08-05 06:46:42 51°13.663 2°55.959 20.3077 4.606169 32.911894 19.545624
2009-08-05 06:46:47 51°13.663 2°55.959 20.2709 4.60295 32.910475 19.68492
2009-08-05 06:46:52 51°13.663 2°55.959 20.248 4.60295 32.910475 19.68492
2009-08-05 06:46:56 51°13.663 2°55.959 20.2283 4.599524 32.915126 19.789392
2009-08-05 06:47:02 51°13.663 2°55.959 20.2 4.595163 32.90397 19.893864
2009-08-05 06:47:07 51°13.663 2°55.959 20.2103 4.591633 32.902447 19.998336
2009-08-05 06:47:12 51°13.663 2°55.959 20.1851 4.585714 32.880568 20.03316
2009-08-05 06:47:17 51°13.663 2°55.959 20.1606 4.584157 32.894888 20.242105
2009-08-05 06:47:22 51°13.663 2°55.959 20.1609 4.584157 32.894888 20.242105
2009-08-05 06:47:27 51°13.663 2°55.959 20.1354 4.582393 32.908164 20.276929
2009-08-05 06:47:32 51°13.663 2°55.959 20.1116 4.577616 32.893658 20.346577
2009-08-05 06:47:37 51°13.663 2°55.959 20.097 4.573671 32.882238 20.416225
2009-08-05 06:47:42 51°13.663 2°55.959 20.0679 4.573671 32.900784 20.520697
2009-08-05 06:47:47 51°13.663 2°55.959 20.0575 4.57066 32.894497 20.590345
2009-08-05 06:47:51 51°13.663 2°55.959 20.0621 4.57066 32.894497 20.590345
2009-08-05 06:47:56 51°13.663 2°55.959 20.0585 4.568272 32.89143 20.625169
2009-08-05 06:48:02 51°13.663 2°55.959 20.0321 4.565781 32.888725 20.694817
2009-08-05 06:48:07 51°13.663 2°55.959 20.0099 4.563393 32.88386 20.764465
2009-08-05 06:48:12 51°13.663 2°55.959 20.0065 4.561524 32.886182 20.834113
2009-08-05 06:48:16 51°13.663 2°55.959 20.0073 4.557994 32.8769 20.903762
2009-08-05 06:48:22 51°13.663 2°55.959 19.9693 4.557994 32.8769 20.903762
2009-08-05 06:48:27 51°13.663 2°55.959 19.9689 4.55654 32.878377 20.903762
2009-08-05 06:48:32 51°13.663 2°55.959 19.9573 4.547611 32.816472 20.938586
2009-08-05 06:48:36 51°13.663 2°55.959 19.935 4.553945 32.879044 21.077882
2009-08-05 06:48:42 51°13.663 2°55.959 19.9319 4.552388 32.879688 21.043058
2009-08-05 06:48:47 51°13.663 2°55.959 19.9213 4.549377 32.86437 21.112706
2009-08-05 06:48:52 51°13.663 2°55.959 19.9136 4.549377 32.86437 21.112706
2009-08-05 06:48:56 51°13.663 2°55.959 19.9233 4.548962 32.876056 21.182354
2009-08-05 06:49:02 51°13.663 2°55.959 19.9105 4.547197 32.872013 21.182354
2009-08-05 06:49:07 51°13.663 2°55.959 19.9028 4.54564 32.87206 21.286826
2009-08-05 06:49:12 51°13.663 2°55.959 19.8937 4.542732 32.861783 21.356474
2009-08-05 06:49:17 51°13.663 2°55.959 19.9035 4.54211 32.866383 21.32165
2009-08-05 06:49:22 51°13.663 2°55.959 19.8868 4.54211 32.866383 21.32165
2009-08-05 06:49:27 51°13.663 2°55.959 19.871 4.540241 32.860894 21.426122
2009-08-05 06:49:32 51°13.663 2°55.959 19.8684 4.539618 32.861275 21.495771
2009-08-05 06:49:36 51°13.663 2°55.959 19.8714 4.538787 32.859974 21.530595
2009-08-05 06:49:42 51°13.663 2°55.959 19.8741 4.538476 32.863483 21.600243
2009-08-05 06:49:47 51°13.663 2°55.959 19.8645 4.537749 32.864232 21.600243
2009-08-05 06:49:52 51°13.663 2°55.959 19.8497 4.537749 32.864232 21.600243
2009-08-05 06:49:57 51°13.663 2°55.959 19.84 4.537646 32.868219 21.669891
2009-08-05 06:50:02 51°13.663 2°55.959 19.8312 4.536192 32.861869 21.669891
2009-08-05 06:50:07 51°13.663 2°55.959 19.8139 4.535258 32.859124 21.669891
2009-08-05 06:50:12 51°13.663 2°55.959 19.8026 4.535154 32.862509 21.669891
2009-08-05 06:50:16 51°13.663 2°55.959 19.8008 4.533493 32.851454 21.739539
2009-08-05 06:50:22 51°13.663 2°55.959 19.8195 4.533493 32.851454 21.739539
2009-08-05 06:50:27 51°13.663 2°55.96 19.7929 4.533908 32.860861 21.774363
2009-08-05 06:50:32 51°13.663 2°55.96 19.8144 4.533285 32.864872 21.774363
2009-08-05 06:50:37 51°13.663 2°55.96 19.7972 4.531728 32.861907 21.809187
2009-08-05 06:50:42 51°13.663 2°55.959 19.7844 4.530171 32.860151 21.878835
2009-08-05 06:50:47 51°13.663 2°55.959 19.7781 4.529029 32.860557 21.878835
2009-08-05 06:50:52 51°13.662 2°55.959 19.7783 4.529029 32.860557 21.878835
2009-08-05 06:50:56 51°13.662 2°55.959 19.7729 4.528925 32.862739 21.948483
2009-08-05 06:51:02 51°13.662 2°55.959 19.7739 4.528718 32.865289 21.983307
2009-08-05 06:51:07 51°13.662 2°55.96 19.7561 4.528302 32.863732 22.087779
2009-08-05 06:51:12 51°13.662 2°55.96 19.7709 4.529029 32.872661 22.087779
2009-08-05 06:51:16 51°13.662 2°55.96 19.7499 4.528095 32.872943 22.122603
2009-08-05 06:51:22 51°13.663 2°55.96 19.7248 4.528095 32.872943 22.122603
2009-08-05 06:51:27 51°13.663 2°55.96 19.7186 4.528406 32.88032 22.157428
2009-08-05 06:51:32 51°13.663 2°55.96 19.7265 4.527991 32.881793 22.192252
2009-08-05 06:51:36 51°13.663 2°55.96 19.7066 4.527784 32.884348 22.2619
2009-08-05 06:51:42 51°13.663 2°55.96 19.7132 4.52768 32.88896 22.331548
2009-08-05 06:51:47 51°13.663 2°55.96 19.6954 4.527784 32.893443 22.366372
2009-08-05 06:51:52 51°13.663 2°55.96 19.7017 4.527784 32.893443 22.366372
2009-08-05 06:51:56 51°13.663 2°55.96 19.691 4.527784 32.900116 22.505668
2009-08-05 06:52:02 51°13.663 2°55.96 19.6889 4.527265 32.908034 22.540492
2009-08-05 06:52:07 51°13.663 2°55.96 19.6848 4.52685 32.909514 22.540492
2009-08-05 06:52:12 51°13.663 2°55.96 19.6772 4.525812 32.910786 22.644964
2009-08-05 06:52:16 51°13.663 2°55.96 19.6843 4.524981 32.911319 22.749436
2009-08-05 06:52:22 51°13.663 2°55.96 19.6676 4.524981 32.911319 22.749436
2009-08-05 06:52:27 51°13.663 2°55.96 19.6721 4.524047 32.907968 22.679788
2009-08-05 06:52:32 51°13.663 2°55.96 19.6655 4.523839 32.909925 22.749436
2009-08-05 06:52:37 51°13.663 2°55.96 19.6699 4.523528 32.911037 22.749436
2009-08-05 06:52:42 51°13.663 2°55.96 19.6654 4.522594 32.907686 22.78426
2009-08-05 06:52:47 51°13.663 2°55.96 19.6721 4.52249 32.909881 22.819085
2009-08-05 06:52:52 51°13.663 2°55.96 19.6752 4.52249 32.909881 22.819085
2009-08-05 06:52:56 51°13.663 2°55.96 19.6788 4.522075 32.911365 22.853909
2009-08-05 06:53:02 51°13.663 2°55.96 19.6906 4.521244 32.90825 22.888733
2009-08-05 06:53:07 51°13.663 2°55.96 19.6875 4.521036 32.909601 22.888733
2009-08-05 06:53:12 51°13.663 2°55.96 19.6851 4.519998 32.902969 22.888733
2009-08-05 06:53:16 51°13.663 2°55.96 19.6782 4.519998 32.903577 22.888733
2009-08-05 06:53:22 51°13.663 2°55.96 19.6719 4.519998 32.903577 22.888733
2009-08-05 06:53:27 51°13.663 2°55.96 19.6779 4.519479 32.899957 22.923557
2009-08-05 06:53:32 51°13.663 2°55.96 19.6743 4.519583 32.898978 22.853909
2009-08-05 06:53:36 51°13.663 2°55.96 19.6678 4.519064 32.89171 22.888733
2009-08-05 06:53:42 51°13.663 2°55.959 19.6717 4.519894 32.89665 22.888733
2009-08-05 06:53:47 51°13.663 2°55.959 19.682 4.518752 32.887349 22.923557
2009-08-05 06:53:52 51°13.663 2°55.959 19.6863 4.518752 32.887349 22.923557
2009-08-05 06:53:56 51°13.663 2°55.959 19.692 4.518129 32.885315 22.853909
2009-08-05 06:54:02 51°13.664 2°55.959 19.6907 4.518337 32.888831 22.888733
2009-08-05 06:54:07 51°13.664 2°55.959 19.6787 4.51761 32.883519 22.958381
2009-08-05 06:54:12 51°13.664 2°55.959 19.6715 4.517506 32.88389 22.958381
2009-08-05 06:54:16 51°13.664 2°55.959 19.6732 4.517091 32.881723 22.958381
2009-08-05 06:54:22 51°13.663 2°55.959 19.6797 4.517091 32.881723 22.958381
2009-08-05 06:54:27 51°13.663 2°55.959 19.6826 4.517403 32.880612 22.923557
2009-08-05 06:54:32 51°13.663 2°55.959 19.6818 4.517714 32.879502 22.993205
2009-08-05 06:54:36 51°13.663 2°55.959 19.6726 4.517714 32.878894 22.958381
2009-08-05 06:54:42 51°13.663 2°55.959 19.6772 4.51761 32.879872 22.993205
2009-08-05 06:54:47 51°13.663 2°55.959 19.6724 4.517195 32.878313 23.097677
2009-08-05 06:54:52 51°13.663 2°55.959 19.682 4.517195 32.878313 23.097677
2009-08-05 06:54:57 51°13.663 2°55.959 19.6621 4.517506 32.882066 23.062853
2009-08-05 06:55:02 51°13.663 2°55.959 19.6681 4.517818 32.883387 23.097677
2009-08-05 06:55:07 51°13.663 2°55.959 19.6705 4.517922 32.88484 23.062853
2009-08-05 06:55:12 51°13.663 2°55.959 19.6731 4.517506 32.883282 23.167325
2009-08-05 06:55:16 51°13.663 2°55.958 19.6588 4.517195 32.881961 23.132501
2009-08-05 06:55:22 51°13.663 2°55.959 19.6583 4.517195 32.881961 23.132501
2009-08-05 06:55:27 51°13.663 2°55.959 19.6573 4.515845 32.871576 23.236973
2009-08-05 06:55:32 51°13.663 2°55.959 19.6605 4.516883 32.880032 23.202149
2009-08-05 06:55:36 51°13.663 2°55.959 19.6566 4.518026 32.892983 23.236973
2009-08-05 06:55:42 51°13.663 2°55.959 19.658 4.517299 32.887671 23.236973
2009-08-05 06:55:47 51°13.663 2°55.959 19.6539 4.517714 32.892271 23.306621
2009-08-05 06:55:52 51°13.663 2°55.959 19.6511 4.517714 32.892271 23.306621
2009-08-05 06:55:56 51°13.663 2°55.959 19.6517 4.516572 32.886008 23.271797
2009-08-05 06:56:02 51°13.663 2°55.959 19.6445 4.516468 32.888203 23.341445
2009-08-05 06:56:07 51°13.663 2°55.959 19.6456 4.51678 32.890741 23.376269
2009-08-05 06:56:12 51°13.663 2°55.959 19.6443 4.5146 32.874802 23.341445
2009-08-05 06:56:16 51°13.663 2°55.959 19.646 4.516053 32.88847 23.411093
2009-08-05 06:56:22 51°13.663 2°55.959 19.6461 4.516053 32.88847 23.411093
2009-08-05 06:56:27 51°13.663 2°55.959 19.6433 4.515845 32.887386 23.411093
2009-08-05 06:56:32 51°13.663 2°55.959 19.6454 4.515326 32.884373 23.411093
2009-08-05 06:56:36 51°13.663 2°55.959 19.6497 4.515223 32.885352 23.445918
2009-08-05 06:56:42 51°13.663 2°55.959 19.6438 4.515015 32.886094 23.480742
2009-08-05 06:56:47 51°13.663 2°55.959 19.6516 4.515015 32.887311 23.411093
2009-08-05 06:56:52 51°13.663 2°55.959 19.6474 4.515015 32.887311 23.411093
2009-08-05 06:56:56 51°13.663 2°55.959 19.6373 4.514081 32.880913 23.515566
2009-08-05 06:57:02 51°13.663 2°55.959 19.6353 4.514807 32.887445 23.480742
2009-08-05 06:57:07 51°13.663 2°55.959 19.6382 4.514807 32.886836 23.515566
2009-08-05 06:57:12 51°13.663 2°55.959 19.6374 4.513458 32.875836 23.515566
2009-08-05 06:57:16 51°13.663 2°55.959 19.6391 4.514392 32.882843 23.515566
2009-08-05 06:57:22 51°13.663 2°55.959 19.6357 4.514392 32.882843 23.515566
2009-08-05 06:57:27 51°13.663 2°55.959 19.632 4.512939 32.870997 23.480742
2009-08-05 06:57:32 51°13.663 2°55.959 19.6367 4.514184 32.882367 23.55039
2009-08-05 06:57:36 51°13.663 2°55.959 19.6313 4.514184 32.88541 23.55039
2009-08-05 06:57:42 51°13.663 2°55.959 19.6312 4.514392 32.88832 23.585214
2009-08-05 06:57:47 51°13.663 2°55.959 19.6316 4.513562 32.882767 23.55039
2009-08-05 06:57:52 51°13.663 2°55.959 19.6341 4.513562 32.882767 23.55039
2009-08-05 06:57:56 51°13.663 2°55.959 19.624 4.513873 32.885915 23.55039
2009-08-05 06:58:02 51°13.663 2°55.959 19.6188 4.513665 32.88544 23.620038
2009-08-05 06:58:07 51°13.663 2°55.959 19.6212 4.513665 32.886048 23.654862
2009-08-05 06:58:12 51°13.663 2°55.959 19.6222 4.513458 32.885573 23.654862
2009-08-05 06:58:16 51°13.663 2°55.959 19.6134 4.513354 32.885944 23.620038
2009-08-05 06:58:22 51°13.663 2°55.959 19.6209 4.513354 32.885944 23.620038
2009-08-05 06:58:27 51°13.662 2°55.959 19.6183 4.512939 32.883167 23.689686
2009-08-05 06:58:32 51°13.662 2°55.959 19.6126 4.512316 32.879915 23.72451
2009-08-05 06:58:36 51°13.662 2°55.959 19.6123 4.511693 32.87788 23.72451
2009-08-05 06:58:42 51°13.662 2°55.959 19.6119 4.511174 32.875474 23.72451
2009-08-05 06:58:47 51°13.662 2°55.959 19.6168 4.510862 32.87476 23.759334
2009-08-05 06:58:52 51°13.662 2°55.959 19.6129 4.510862 32.87476 23.759334
2009-08-05 06:58:56 51°13.662 2°55.959 19.6188 4.511485 32.880449 23.759334
2009-08-05 06:59:02 51°13.662 2°55.959 19.6121 4.51107 32.877671 23.794158
2009-08-05 06:59:07 51°13.662 2°55.959 19.6152 4.51107 32.879498 23.828982
2009-08-05 06:59:12 51°13.662 2°55.959 19.6097 4.510863 32.879632 23.794158
2009-08-05 06:59:16 51°13.663 2°55.959 19.6122 4.510447 32.876854 23.828982
2009-08-05 06:59:22 51°13.663 2°55.959 19.6152 4.510447 32.876854 23.828982
2009-08-05 06:59:27 51°13.663 2°55.959 19.6151 4.510136 32.874314 23.794158
2009-08-05 06:59:32 51°13.663 2°55.959 19.6107 4.510966 32.880478 23.794158
2009-08-05 06:59:37 51°13.663 2°55.959 19.6132 4.510551 32.877091 23.828982
2009-08-05 06:59:42 51°13.663 2°55.959 19.6187 4.510032 32.873467 23.828982
2009-08-05 06:59:47 51°13.663 2°55.959 19.6119 4.510551 32.878309 23.863806
2009-08-05 06:59:52 51°13.663 2°55.959 19.6136 4.510551 32.878309 23.863806
2009-08-05 06:59:56 51°13.663 2°55.959 19.6052 4.510136 32.874923 23.933454
2009-08-05 07:00:02 51°13.663 2°55.959 19.6143 4.510863 32.88085 23.89863
2009-08-05 07:00:07 51°13.663 2°55.959 19.6113 4.509824 32.872382 23.863806
2009-08-05 07:00:12 51°13.663 2°55.959 19.6085 4.511797 32.887861 23.863806
2009-08-05 07:00:16 51°13.663 2°55.959 19.6059 4.511693 32.886405 23.89863
2009-08-05 07:00:22 51°13.663 2°55.959 19.6061 4.511693 32.886405 23.89863
2009-08-05 07:00:27 51°13.663 2°55.959 19.6013 4.510863 32.880241 23.933454
2009-08-05 07:00:32 51°13.663 2°55.959 19.608 4.510863 32.882068 23.89863
2009-08-05 07:00:37 51°13.663 2°55.959 19.6045 4.511382 32.886302 23.89863
2009-08-05 07:00:42 51°13.663 2°55.959 19.6053 4.511693 32.889451 23.933454
2009-08-05 07:00:46 51°13.663 2°55.959 19.6005 4.511693 32.890061 23.933454
2009-08-05 07:00:52 51°13.663 2°55.959 19.6025 4.511693 32.890061 23.933454
2009-08-05 07:00:57 51°13.663 2°55.959 19.6043 4.512212 32.895514 23.968278
2009-08-05 07:01:02 51°13.663 2°55.959 19.6009 4.509201 32.872782 23.933454
2009-08-05 07:01:07 51°13.663 2°55.959 19.6028 4.51107 32.888635 23.933454
2009-08-05 07:01:12 51°13.664 2°55.959 19.6004 4.510655 32.885857 24.003102
2009-08-05 07:01:16 51°13.664 2°55.959 19.5968 4.511278 32.890939 24.003102
2009-08-05 07:01:22 51°13.664 2°55.959 19.6031 4.511278 32.890939 24.003102
2009-08-05 07:01:27 51°13.664 2°55.959 19.6102 4.511382 32.893004 24.003102
2009-08-05 07:01:32 51°13.664 2°55.959 19.606 4.511693 32.896155 23.968278
2009-08-05 07:01:36 51°13.664 2°55.959 19.6025 4.511174 32.892529 24.003102
2009-08-05 07:01:42 51°13.663 2°55.959 19.5997 4.51107 32.892292 24.003102
2009-08-05 07:01:47 51°13.663 2°55.959 19.6041 4.511174 32.893748 24.003102
2009-08-05 07:01:52 51°13.663 2°55.959 19.6048 4.511174 32.893748 24.003102
2009-08-05 07:01:56 51°13.662 2°55.959 19.6028 4.511174 32.894358 24.003102
2009-08-05 07:02:02 51°13.662 2°55.958 19.6033 4.511486 32.89507 24.037926
2009-08-05 07:02:07 51°13.662 2°55.959 19.6035 4.511486 32.893851 24.037926
2009-08-05 07:02:12 51°13.662 2°55.959 19.602 4.511589 32.894698 24.037926
2009-08-05 07:02:16 51°13.662 2°55.959 19.6038 4.511693 32.896764 24.037926
2009-08-05 07:02:22 51°13.663 2°55.959 19.6003 4.511693 32.896764 24.037926
2009-08-05 07:02:27 51°13.663 2°55.959 19.6087 4.512005 32.899306 24.142399
2009-08-05 07:02:32 51°13.663 2°55.959 19.6009 4.51107 32.891073 24.107575
2009-08-05 07:02:36 51°13.663 2°55.959 19.6085 4.512005 32.899306 24.107575
2009-08-05 07:02:42 51°13.664 2°55.959 19.6055 4.511797 32.897611 24.142399
2009-08-05 07:02:47 51°13.664 2°55.959 19.6057 4.51107 32.891682 24.177223
2009-08-05 07:02:52 51°13.664 2°55.959 19.6041 4.51107 32.891682 24.177223
2009-08-05 07:02:56 51°13.664 2°55.959 19.6051 4.511901 32.898459 24.246871
2009-08-05 07:03:02 51°13.663 2°55.959 19.604 4.512212 32.901 24.177223
2009-08-05 07:03:07 51°13.663 2°55.96 19.5949 4.512628 32.904388 24.212047
2009-08-05 07:03:12 51°13.663 2°55.96 19.6001 4.511797 32.897002 24.212047
2009-08-05 07:03:16 51°13.663 2°55.96 19.6043 4.513251 32.907641 24.246871
2009-08-05 07:03:22 51°13.663 2°55.959 19.5954 4.513251 32.907641 24.246871
2009-08-05 07:03:27 51°13.663 2°55.959 19.5968 4.512628 32.902559 24.316519
2009-08-05 07:03:32 51°13.663 2°55.959 19.5952 4.511486 32.893851 24.316519
2009-08-05 07:03:36 51°13.663 2°55.959 19.598 4.514185 32.916484 24.316519
2009-08-05 07:03:42 51°13.663 2°55.959 19.5972 4.513458 32.912994 24.386167
2009-08-05 07:03:47 51°13.663 2°55.959 19.592 4.514393 32.921228 24.386167
2009-08-05 07:03:52 51°13.663 2°55.96 19.5924 4.514393 32.921228 24.386167
2009-08-05 07:03:56 51°13.663 2°55.96 19.5963 4.514289 32.920381 24.386167
2009-08-05 07:04:02 51°13.663 2°55.96 19.5906 4.514185 32.920144 24.420991
2009-08-05 07:04:07 51°13.663 2°55.96 19.5945 4.513562 32.916281 24.420991
2009-08-05 07:04:12 51°13.663 2°55.96 19.5911 4.514185 32.921974 24.420991
2009-08-05 07:04:16 51°13.663 2°55.96 19.5943 4.513458 32.916654 24.490639
2009-08-05 07:04:22 51°13.663 2°55.96 19.5964 4.513458 32.916654 24.490639
2009-08-05 07:04:27 51°13.663 2°55.96 19.5942 4.514185 32.923805 24.490639
2009-08-05 07:04:32 51°13.663 2°55.96 19.5931 4.514704 32.928041 24.490639
2009-08-05 07:04:36 51°13.663 2°55.96 19.5978 4.514289 32.925262 24.490639
2009-08-05 07:04:42 51°13.663 2°55.96 19.5899 4.51377 32.921026 24.525463
2009-08-05 07:04:47 51°13.663 2°55.96 19.5881 4.513978 32.923331 24.490639
2009-08-05 07:04:52 51°13.663 2°55.96 19.5876 4.513978 32.923331 24.490639
2009-08-05 07:04:57 51°13.663 2°55.96 19.59 4.513666 32.920789 24.490639
2009-08-05 07:05:02 51°13.663 2°55.96 19.5825 4.513874 32.922483 24.595111
2009-08-05 07:05:07 51°13.663 2°55.96 19.5839 4.513874 32.921873 24.560287
2009-08-05 07:05:12 51°13.663 2°55.96 19.5867 4.51377 32.921026 24.595111
2009-08-05 07:05:17 51°13.663 2°55.96 19.5796 4.512628 32.913536 24.664759
2009-08-05 07:05:22 51°13.663 2°55.96 19.5794 4.512628 32.913536 24.664759
2009-08-05 07:05:27 51°13.663 2°55.96 19.5892 4.512005 32.910283 24.734408
2009-08-05 07:05:32 51°13.663 2°55.96 19.5783 4.512732 32.916824 24.804056
2009-08-05 07:05:36 51°13.663 2°55.96 19.5769 4.511382 32.907029 24.769232
2009-08-05 07:05:42 51°13.662 2°55.959 19.5812 4.513043 32.921197 24.734408
2009-08-05 07:05:47 51°13.662 2°55.959 19.5799 4.513562 32.926045 24.804056
2009-08-05 07:05:52 51°13.662 2°55.959 19.5768 4.513562 32.926045 24.804056
2009-08-05 07:05:56 51°13.662 2°55.959 19.5811 4.510344 32.900995 24.769232
2009-08-05 07:06:02 51°13.662 2°55.959 19.5843 4.512836 32.921333 24.804056
2009-08-05 07:06:07 51°13.662 2°55.959 19.588 4.512732 32.921707 24.873704
2009-08-05 07:06:12 51°13.662 2°55.959 19.5868 4.510344 32.903436 24.873704
2009-08-05 07:06:16 51°13.662 2°55.959 19.589 4.510759 32.906825 24.804056
2009-08-05 07:06:22 51°13.662 2°55.959 19.5787 4.510759 32.906825 24.804056
2009-08-05 07:06:27 51°13.662 2°55.959 19.5832 4.510552 32.90513 24.873704
2009-08-05 07:06:32 51°13.662 2°55.959 19.5767 4.509306 32.894961 24.83888
2009-08-05 07:06:36 51°13.662 2°55.959 19.5781 4.509617 32.896284 24.83888
2009-08-05 07:06:42 51°13.662 2°55.959 19.5804 4.509098 32.890827 24.873704
2009-08-05 07:06:47 51°13.662 2°55.959 19.5836 4.508786 32.887066 24.873704
2009-08-05 07:06:52 51°13.662 2°55.959 19.5807 4.508786 32.887066 24.873704
2009-08-05 07:06:56 51°13.662 2°55.959 19.5855 4.507541 32.877508 24.908528
2009-08-05 07:07:02 51°13.662 2°55.959 19.5901 4.506606 32.870492 24.908528
2009-08-05 07:07:07 51°13.662 2°55.959 19.5898 4.506087 32.868084 24.83888
2009-08-05 07:07:12 51°13.662 2°55.959 19.5821 4.505464 32.86361 24.873704
2009-08-05 07:07:16 51°13.662 2°55.959 19.5772 4.505153 32.861068 24.83888
2009-08-05 07:07:22 51°13.662 2°55.959 19.5786 4.505153 32.861068 24.83888
2009-08-05 07:07:27 51°13.662 2°55.959 19.5799 4.504737 32.857679 24.873704
2009-08-05 07:07:32 51°13.662 2°55.959 19.5794 4.505257 32.861306 24.873704
2009-08-05 07:07:36 51°13.662 2°55.959 19.5853 4.504634 32.854395 24.873704
2009-08-05 07:07:42 51°13.662 2°55.959 19.5859 4.504737 32.854024 24.873704
2009-08-05 07:07:47 51°13.662 2°55.959 19.5806 4.503595 32.845923 24.943352
2009-08-05 07:07:52 51°13.663 2°55.957 19.5843 4.503595 32.845923 24.943352
2009-08-05 07:07:57 51°13.663 2°55.956 19.585 4.50318 32.844362 24.908528
2009-08-05 07:08:02 51°13.663 2°55.953 19.5774 4.502972 32.843885 24.908528
2009-08-05 07:08:07 51°13.664 2°55.95 19.5844 4.503595 32.848968 24.943352
2009-08-05 07:08:12 51°13.665 2°55.947 19.5875 4.503595 32.847141 24.908528
2009-08-05 07:08:17 51°13.666 2°55.942 19.587 4.503388 32.844838 24.978176
2009-08-05 07:08:23 51°13.667 2°55.936 19.5859 4.503388 32.844838 24.978176
2009-08-05 07:08:28 51°13.669 2°55.931 19.5901 4.501623 32.829828 24.943352
2009-08-05 07:08:34 51°13.671 2°55.925 19.589 4.502453 32.836605 25.047824
2009-08-05 07:08:40 51°13.673 2°55.918 19.5874 4.501 32.826572 25.013
2009-08-05 07:08:46 51°13.675 2°55.91 19.5888 4.501727 32.831284 25.047824
2009-08-05 07:08:51 51°13.677 2°55.904 19.5817 4.501415 32.827526 25.117472
2009-08-05 07:08:55 51°13.678 2°55.899 19.5825 4.501415 32.827526 25.117472
2009-08-05 07:09:00 51°13.68 2°55.892 19.58 4.498716 32.805503 25.291592
2009-08-05 07:09:06 51°13.682 2°55.884 19.583 4.500065 32.815906 25.18712
2009-08-05 07:09:11 51°13.684 2°55.877 19.5792 4.499546 32.811063 25.082648
2009-08-05 07:09:15 51°13.685 2°55.871 19.5854 4.499235 32.808522 25.082648
2009-08-05 07:09:20 51°13.687 2°55.864 19.5792 4.498404 32.802354 25.326416
2009-08-05 07:09:26 51°13.688 2°55.855 19.5855 4.498404 32.802354 25.326416
2009-08-05 07:09:31 51°13.69 2°55.848 19.5807 4.497989 32.800183 25.605009
2009-08-05 07:09:35 51°13.691 2°55.842 19.5798 4.49747 32.797164 25.813953
2009-08-05 07:09:40 51°13.692 2°55.834 19.5856 4.497366 32.796925 26.022897
2009-08-05 07:09:45 51°13.693 2°55.827 19.5767 4.497158 32.795231 26.162194
2009-08-05 07:09:51 51°13.694 2°55.819 19.5784 4.497781 32.800313 26.336314
2009-08-05 07:09:55 51°13.694 2°55.813 19.5724 4.497781 32.800313 26.336314
2009-08-05 07:10:00 51°13.694 2°55.806 19.579 4.497781 32.800313 26.405962
2009-08-05 07:10:06 51°13.695 2°55.799 19.5816 4.497781 32.800313 26.545258
2009-08-05 07:10:11 51°13.695 2°55.792 19.5736 4.498197 32.804309 26.64973
2009-08-05 07:10:15 51°13.695 2°55.787 19.5746 4.498197 32.804917 26.545258
2009-08-05 07:10:20 51°13.694 2°55.781 19.5717 4.498404 32.806611 26.580082
2009-08-05 07:10:26 51°13.694 2°55.774 19.5757 4.498404 32.806611 26.580082
2009-08-05 07:10:30 51°13.693 2°55.769 19.5746 4.498197 32.806134 26.719379
2009-08-05 07:10:35 51°13.693 2°55.764 19.5795 4.498197 32.806742 26.684555
2009-08-05 07:10:40 51°13.692 2°55.758 19.5751 4.496536 32.792581 26.719379
2009-08-05 07:10:46 51°13.691 2°55.752 19.5739 4.497885 32.804809 26.823851
2009-08-05 07:10:50 51°13.691 2°55.749 19.5828 4.497989 32.806873 26.858675
2009-08-05 07:10:55 51°13.69 2°55.744 19.5729 4.497989 32.806873 26.858675
2009-08-05 07:11:00 51°13.689 2°55.74 19.5734 4.498301 32.810023 26.823851
2009-08-05 07:11:05 51°13.688 2°55.737 19.5762 4.496847 32.797555 26.928323
2009-08-05 07:11:10 51°13.688 2°55.734 19.5807 4.498508 32.8105 26.963147
2009-08-05 07:11:15 51°13.688 2°55.734 19.5809 4.498093 32.807112 26.997971
2009-08-05 07:11:19 51°13.689 2°55.734 19.5749 4.498612 32.811347 27.41586
2009-08-05 07:11:24 51°13.689 2°55.734 19.5757 4.498612 32.811347 27.41586
2009-08-05 07:11:29 51°13.69 2°55.734 19.5739 4.498923 32.81328 27.659628
2009-08-05 07:11:34 51°13.691 2°55.734 19.5707 4.498923 32.815106 27.41586
2009-08-05 07:11:39 51°13.692 2°55.735 19.5708 4.498923 32.814497 27.241739
2009-08-05 07:11:44 51°13.693 2°55.736 19.5784 4.499443 32.818125 27.241739
2009-08-05 07:11:48 51°13.694 2°55.736 19.5829 4.499546 32.817755 27.206915
2009-08-05 07:11:53 51°13.696 2°55.737 19.5751 4.499546 32.817755 27.206915
2009-08-05 07:11:58 51°13.697 2°55.738 19.5818 4.499235 32.815822 27.172091
2009-08-05 07:12:04 51°13.699 2°55.739 19.5878 4.499443 32.819342 27.067619
2009-08-05 07:12:09 51°13.701 2°55.739 19.5788 4.499235 32.818865 27.137267
2009-08-05 07:12:14 51°13.704 2°55.739 19.5717 4.49882 32.816084 27.067619
2009-08-05 07:12:19 51°13.706 2°55.74 19.5768 4.498093 32.809545 27.067619
2009-08-05 07:12:24 51°13.708 2°55.739 19.5739 4.498093 32.809545 27.067619
2009-08-05 07:12:28 51°13.71 2°55.739 19.5719 4.499235 32.817647 27.102443
2009-08-05 07:12:33 51°13.713 2°55.739 19.5739 4.499443 32.818125 27.032795
2009-08-05 07:12:38 51°13.716 2°55.738 19.5779 4.499131 32.814366 27.102443
2009-08-05 07:12:43 51°13.719 2°55.736 19.578 4.498716 32.811586 27.032795
2009-08-05 07:12:48 51°13.722 2°55.735 19.5747 4.498301 32.809414 27.067619
2009-08-05 07:12:53 51°13.725 2°55.732 19.5735 4.498301 32.809414 27.067619
2009-08-05 07:12:58 51°13.728 2°55.729 19.5803 4.497678 32.805548 26.997971
2009-08-05 07:13:04 51°13.733 2°55.725 19.5725 4.496432 32.795991 26.963147
2009-08-05 07:13:09 51°13.737 2°55.721 19.5805 4.494355 32.779049 26.997971
2009-08-05 07:13:15 51°13.743 2°55.716 19.5781 4.494771 32.781829 27.032795
2009-08-05 07:13:20 51°13.748 2°55.711 19.5827 4.494148 32.776747 27.067619
2009-08-05 07:13:24 51°13.752 2°55.707 19.5795 4.494148 32.776747 27.067619
2009-08-05 07:13:29 51°13.758 2°55.701 19.5787 4.493213 32.769124 27.032795
2009-08-05 07:13:34 51°13.763 2°55.696 19.5774 4.492279 32.760893 27.032795
2009-08-05 07:13:39 51°13.769 2°55.69 19.5812 4.492383 32.761133 26.963147
2009-08-05 07:13:44 51°13.776 2°55.684 19.5824 4.492487 32.761372 26.997971
2009-08-05 07:13:48 51°13.781 2°55.679 19.5771 4.492071 32.757377 27.032795
2009-08-05 07:13:53 51°13.787 2°55.673 19.5841 4.492071 32.757377 27.032795
2009-08-05 07:13:58 51°13.794 2°55.666 19.5769 4.491241 32.749995 27.067619
2009-08-05 07:14:03 51°13.801 2°55.66 19.5822 4.490099 32.741287 27.067619
2009-08-05 07:14:08 51°13.809 2°55.653 19.581 4.489683 32.737899 26.928323
2009-08-05 07:14:13 51°13.816 2°55.646 19.5793 4.489268 32.733905 26.997971
2009-08-05 07:14:18 51°13.824 2°55.639 19.5824 4.488334 32.725677 26.997971
2009-08-05 07:14:23 51°13.832 2°55.633 19.5867 4.488334 32.725677 26.997971
2009-08-05 07:14:28 51°13.84 2°55.626 19.5832 4.487815 32.721444 26.963147
2009-08-05 07:14:31 51°13.845 2°55.622 19.5836 4.486984 32.71467 26.928323
2009-08-05 07:14:37 51°13.855 2°55.613 19.5844 4.486465 32.710436 26.928323
2009-08-05 07:14:42 51°13.864 2°55.606 19.5879 4.486257 32.708743 26.963147
2009-08-05 07:14:47 51°13.873 2°55.599 19.5856 4.485634 32.704269 26.963147
2009-08-05 07:14:52 51°13.882 2°55.592 19.5778 4.485634 32.704269 26.963147
2009-08-05 07:14:56 51°13.889 2°55.586 19.5815 4.485323 32.700517 26.963147
2009-08-05 07:15:02 51°13.901 2°55.577 19.583 4.484181 32.690598 26.997971
2009-08-05 07:15:07 51°13.91 2°55.569 19.5856 4.48335 32.68322 26.997971
2009-08-05 07:15:12 51°13.92 2°55.562 19.5763 4.483039 32.680074 27.102443
2009-08-05 07:15:17 51°13.929 2°55.554 19.583 4.48252 32.675236 27.137267
2009-08-05 07:15:22 51°13.939 2°55.546 19.5823 4.48252 32.675236 27.137267
2009-08-05 07:15:27 51°13.949 2°55.539 19.5851 4.48252 32.675842 27.102443
2009-08-05 07:15:32 51°13.959 2°55.53 19.578 4.482624 32.677294 27.206915
2009-08-05 07:15:37 51°13.969 2°55.523 19.5793 4.483558 32.684913 27.172091
2009-08-05 07:15:42 51°13.979 2°55.515 19.577 4.484492 32.692532 27.172091
2009-08-05 07:15:47 51°13.989 2°55.507 19.5739 4.4847 32.695437 27.172091
2009-08-05 07:15:52 51°13.999 2°55.499 19.5724 4.4847 32.695437 27.172091
2009-08-05 07:15:56 51°14.007 2°55.493 19.5673 4.486257 32.708137 27.241739
2009-08-05 07:16:02 51°14.019 2°55.483 19.5738 4.487399 32.716237 27.276563
2009-08-05 07:16:07 51°14.03 2°55.476 19.5697 4.488749 32.727851 27.276563
2009-08-05 07:16:12 51°14.04 2°55.468 19.5622 4.490202 32.740312 27.311387
2009-08-05 07:16:17 51°14.05 2°55.46 19.5659 4.491656 32.753382 27.346212
2009-08-05 07:16:22 51°14.06 2°55.452 19.5694 4.491656 32.753382 27.346212
2009-08-05 07:16:27 51°14.071 2°55.445 19.5679 4.492798 32.765128 27.346212
2009-08-05 07:16:32 51°14.081 2°55.437 19.562 4.493836 32.775421 27.381036
2009-08-05 07:16:36 51°14.089 2°55.43 19.5654 4.495082 32.786194 27.41586
2009-08-05 07:16:42 51°14.102 2°55.42 19.5682 4.496432 32.798424 27.41586
2009-08-05 07:16:47 51°14.112 2°55.412 19.5624 4.497989 32.812958 27.485508
2009-08-05 07:16:52 51°14.122 2°55.404 19.5664 4.497989 32.812958 27.485508
2009-08-05 07:16:56 51°14.13 2°55.397 19.5678 4.499443 32.826038 27.41586
2009-08-05 07:17:02 51°14.142 2°55.386 19.5594 4.501 32.838749 27.41586
2009-08-05 07:17:07 51°14.152 2°55.377 19.5633 4.501415 32.843357 27.450684
2009-08-05 07:17:12 51°14.162 2°55.368 19.5656 4.502557 32.85268 27.555156
2009-08-05 07:17:17 51°14.172 2°55.358 19.5612 4.504115 32.865393 27.520332
2009-08-05 07:17:22 51°14.181 2°55.348 19.5602 4.504115 32.865393 27.520332
2009-08-05 07:17:27 51°14.19 2°55.338 19.5597 4.505257 32.875326 27.555156
2009-08-05 07:17:32 51°14.2 2°55.328 19.558 4.50671 32.887193 27.659628
2009-08-05 07:17:36 51°14.207 2°55.319 19.556 4.508579 32.903672 27.833748
2009-08-05 07:17:42 51°14.218 2°55.306 19.5628 4.510137 32.916389 27.798924
2009-08-05 07:17:47 51°14.226 2°55.294 19.558 4.51159 32.92887 27.798924
2009-08-05 07:17:52 51°14.235 2°55.282 19.56 4.51159 32.92887 27.798924
2009-08-05 07:17:56 51°14.242 2°55.272 19.5557 4.513355 32.943896 27.93822
2009-08-05 07:18:02 51°14.252 2°55.256 19.5507 4.515016 32.958075 27.93822
2009-08-05 07:18:07 51°14.26 2°55.242 19.5543 4.516158 32.968627 27.93822
2009-08-05 07:18:12 51°14.268 2°55.228 19.5513 4.517508 32.980264 27.93822
2009-08-05 07:18:16 51°14.275 2°55.217 19.5513 4.518443 32.987286 27.973045
2009-08-05 07:18:22 51°14.285 2°55.199 19.5497 4.518443 32.987286 27.973045
2009-08-05 07:18:27 51°14.293 2°55.184 19.5533 4.507852 32.9014 28.147165
2009-08-05 07:18:32 51°14.301 2°55.169 19.5511 4.521038 33.009716 28.216813
2009-08-05 07:18:36 51°14.308 2°55.157 19.5453 4.522907 33.026825 28.321285
2009-08-05 07:18:42 51°14.317 2°55.137 19.5456 4.524257 33.038467 28.286461
2009-08-05 07:18:47 51°14.326 2°55.122 19.535 4.52623 33.055816 28.460581
2009-08-05 07:18:52 51°14.334 2°55.105 19.5422 4.52623 33.055816 28.460581
2009-08-05 07:18:57 51°14.342 2°55.088 19.5362 4.528306 33.073402 28.495405
2009-08-05 07:19:02 51°14.35 2°55.071 19.5417 4.530487 33.091224 28.356109
2009-08-05 07:19:07 51°14.358 2°55.053 19.5415 4.532875 33.111975 28.251637
2009-08-05 07:19:12 51°14.367 2°55.035 19.533 4.534121 33.123391 28.216813
2009-08-05 07:19:16 51°14.374 2°55.02 19.5225 4.535471 33.136887 28.286461
2009-08-05 07:19:22 51°14.384 2°54.997 19.5199 4.535471 33.136887 28.286461
2009-08-05 07:19:27 51°14.392 2°54.978 19.5264 4.536301 33.146141 28.356109
2009-08-05 07:19:32 51°14.402 2°54.959 19.5205 4.537547 33.157562 28.495405
2009-08-05 07:19:37 51°14.411 2°54.941 19.5092 4.538793 33.168368 28.460581
2009-08-05 07:19:42 51°14.421 2°54.922 19.5062 4.541389 33.190217 28.70435
2009-08-05 07:19:47 51°14.431 2°54.904 19.4988 4.544712 33.221099 28.565053
2009-08-05 07:19:52 51°14.441 2°54.885 19.4883 4.544712 33.221099 28.565053
2009-08-05 07:19:56 51°14.449 2°54.87 19.4936 4.547723 33.25006 28.599877
2009-08-05 07:20:02 51°14.462 2°54.848 19.4942 4.550007 33.271228 28.599877
2009-08-05 07:20:07 51°14.474 2°54.832 19.5058 4.552707 33.2958 28.669526
2009-08-05 07:20:12 51°14.486 2°54.816 19.4784 4.555614 33.323937 28.634702
2009-08-05 07:20:16 51°14.495 2°54.804 19.4705 4.558522 33.353325 28.773998
2009-08-05 07:20:22 51°14.51 2°54.787 19.4731 4.558522 33.353325 28.773998
2009-08-05 07:20:27 51°14.523 2°54.772 19.4691 4.561845 33.385507 28.773998
2009-08-05 07:20:32 51°14.535 2°54.758 19.4686 4.563818 33.405398 28.70435
2009-08-05 07:20:36 51°14.546 2°54.748 19.4754 4.565687 33.421337 28.739174
2009-08-05 07:20:42 51°14.562 2°54.733 19.4619 4.568179 33.441762 28.982942
2009-08-05 07:20:47 51°14.575 2°54.722 19.4635 4.570463 33.466087 28.948118
2009-08-05 07:20:52 51°14.589 2°54.712 19.4595 4.570463 33.466087 28.948118
2009-08-05 07:20:56 51°14.6 2°54.705 19.4597 4.573683 33.498086 28.913294
2009-08-05 07:21:02 51°14.617 2°54.696 19.4495 4.575552 33.517155 28.913294
2009-08-05 07:21:07 51°14.631 2°54.689 19.4437 4.578044 33.538846 28.913294
2009-08-05 07:21:12 51°14.646 2°54.683 19.4444 4.580536 33.561789 28.982942
2009-08-05 07:21:17 51°14.66 2°54.677 19.4346 4.583548 33.589623 28.913294
2009-08-05 07:21:22 51°14.674 2°54.672 19.4318 4.583548 33.589623 28.913294
2009-08-05 07:21:27 51°14.689 2°54.666 19.4326 4.587078 33.620476 28.982942
2009-08-05 07:21:32 51°14.703 2°54.66 19.4336 4.590401 33.650258 29.122238
2009-08-05 07:21:36 51°14.715 2°54.656 19.4356 4.593517 33.680223 29.087414
2009-08-05 07:21:42 51°14.733 2°54.649 19.4325 4.595178 33.697631 29.122238
2009-08-05 07:21:47 51°14.747 2°54.644 19.433 4.597463 33.720163 29.017766
2009-08-05 07:21:52 51°14.762 2°54.639 19.4308 4.597463 33.720163 29.017766
2009-08-05 07:21:57 51°14.776 2°54.634 19.4155 4.59902 33.737985 29.087414
2009-08-05 07:22:02 51°14.791 2°54.629 19.4181 4.601201 33.759048 29.157062
2009-08-05 07:22:07 51°14.806 2°54.624 19.4121 4.603797 33.782272 29.261534
2009-08-05 07:22:12 51°14.821 2°54.619 19.4146 4.605147 33.793998 29.435655
2009-08-05 07:22:17 51°14.835 2°54.614 19.4091 4.607744 33.815969 29.505303
2009-08-05 07:22:22 51°14.85 2°54.609 19.4059 4.607744 33.815969 29.505303
2009-08-05 07:22:27 51°14.865 2°54.605 19.3918 4.609717 33.833451 29.540127
2009-08-05 07:22:32 51°14.88 2°54.599 19.3999 4.612105 33.856243 29.400831
2009-08-05 07:22:36 51°14.891 2°54.595 19.3867 4.613975 33.876034 29.400831
2009-08-05 07:22:42 51°14.909 2°54.588 19.3746 4.61574 33.893713 29.400831
2009-08-05 07:22:47 51°14.924 2°54.583 19.3791 4.617298 33.908424 29.331183
2009-08-05 07:22:52 51°14.939 2°54.577 19.3851 4.617298 33.908424 29.331183
2009-08-05 07:22:57 51°14.953 2°54.572 19.3752 4.618752 33.92418 29.296359
2009-08-05 07:23:02 51°14.968 2°54.566 19.3725 4.620621 33.943992 29.261534
2009-08-05 07:23:07 51°14.983 2°54.561 19.3698 4.622179 33.961879 29.191886
2009-08-05 07:23:12 51°14.998 2°54.556 19.3652 4.623737 33.980406 29.22671
2009-08-05 07:23:16 51°15.009 2°54.551 19.3568 4.624983 33.993838 29.22671
2009-08-05 07:23:22 51°15.027 2°54.545 19.3507 4.624983 33.993838 29.22671
2009-08-05 07:23:27 51°15.041 2°54.539 19.3484 4.625814 34.004486 29.22671
2009-08-05 07:23:32 51°15.056 2°54.533 19.3486 4.626333 34.010667 29.05259
2009-08-05 07:23:36 51°15.067 2°54.529 19.344 4.627372 34.021761 29.05259
2009-08-05 07:23:42 51°15.084 2°54.522 19.3452 4.628618 34.035203 28.982942
2009-08-05 07:23:47 51°15.098 2°54.517 19.3386 4.629968 34.052046 28.87847
2009-08-05 07:23:52 51°15.113 2°54.512 19.3298 4.629968 34.052046 28.87847
2009-08-05 07:23:56 51°15.124 2°54.509 19.3286 4.631526 34.069336 28.948118
2009-08-05 07:24:02 51°15.141 2°54.503 19.3169 4.633188 34.088124 29.017766
2009-08-05 07:24:07 51°15.156 2°54.498 19.3148 4.633811 34.096445 28.87847
2009-08-05 07:24:12 51°15.17 2°54.494 19.3156 4.634538 34.10435 28.843646
2009-08-05 07:24:17 51°15.185 2°54.489 19.3122 4.63568 34.115682 28.773998
2009-08-05 07:24:22 51°15.199 2°54.484 19.3091 4.63568 34.115682 28.773998
2009-08-05 07:24:27 51°15.214 2°54.48 19.3156 4.636304 34.125283 28.70435
2009-08-05 07:24:32 51°15.228 2°54.475 19.303 4.63755 34.139389 28.70435
2009-08-05 07:24:36 51°15.24 2°54.472 19.3011 4.638796 34.155414 28.565053
2009-08-05 07:24:42 51°15.257 2°54.466 19.2952 4.639108 34.162454 28.634702
2009-08-05 07:24:47 51°15.272 2°54.462 19.2897 4.640458 34.17679 28.565053
2009-08-05 07:24:52 51°15.286 2°54.457 19.2921 4.640458 34.17679 28.565053
2009-08-05 07:24:57 51°15.301 2°54.452 19.2866 4.640977 34.183632 28.70435
2009-08-05 07:25:02 51°15.315 2°54.447 19.2809 4.641808 34.192408 28.773998
2009-08-05 07:25:07 51°15.33 2°54.441 19.2805 4.642535 34.201607 28.913294
2009-08-05 07:25:12 51°15.344 2°54.436 19.2827 4.64347 34.213802 28.773998
2009-08-05 07:25:16 51°15.356 2°54.432 19.2785 4.644093 34.223429 28.773998
2009-08-05 07:25:22 51°15.373 2°54.425 19.279 4.644093 34.223429 28.773998
2009-08-05 07:25:27 51°15.388 2°54.42 19.268 4.644924 34.232852 28.669526
2009-08-05 07:25:32 51°15.402 2°54.415 19.2754 4.645443 34.239703 28.599877
2009-08-05 07:25:36 51°15.414 2°54.41 19.2708 4.645755 34.246121 28.530229
2009-08-05 07:25:42 51°15.431 2°54.405 19.2682 4.646378 34.253833 28.321285
2009-08-05 07:25:47 51°15.446 2°54.4 19.2643 4.646898 34.260688 28.251637
2009-08-05 07:25:52 51°15.46 2°54.396 19.2608 4.646898 34.260688 28.251637
2009-08-05 07:25:56 51°15.472 2°54.393 19.2572 4.647625 34.269261 28.112341
2009-08-05 07:26:02 51°15.489 2°54.389 19.2554 4.648248 34.276977 28.007869
2009-08-05 07:26:07 51°15.504 2°54.386 19.2599 4.648352 34.279119 27.973045
2009-08-05 07:26:12 51°15.519 2°54.384 19.2606 4.648767 34.283836 27.973045
2009-08-05 07:26:16 51°15.53 2°54.381 19.2549 4.649494 34.291771 27.93822
2009-08-05 07:26:22 51°15.547 2°54.379 19.2504 4.649494 34.291771 27.93822
2009-08-05 07:26:27 51°15.56 2°54.377 19.2549 4.650013 34.298632 27.868572